<?xml version="1.0" encoding="UTF-8" standalone="no" ?>
<gpx xmlns="http://www.topografix.com/GPX/1/1" xmlns:xsi="http://www.w3.org/2001/XMLSchema-instance" xsi:schemaLocation="http://www.topografix.com/GPX/1/1 http://www.topografix.com/GPX/1/1/gpx.xsd" version="1.1" creator="VisuGPX - https://www.visugpx.com">
  <metadata>
    <name>ronde des chateaux la Bastide d'armagnac  landes 40</name>
    <desc><![CDATA[ parcours facile trés bien flêché]]></desc>
  </metadata>
  <trk>
    <name><![CDATA[la BASTIDE D'ARMAGNAC 11 FEV 2016 09:22]]></name>
    <trkseg>
      <trkpt lat="43.97001" lon="-0.18584">
        <ele>124.63</ele>
        <time>2016-02-11T08:22:33Z</time>
      </trkpt>
      <trkpt lat="43.97002" lon="-0.18582">
        <ele>125.11</ele>
        <time>2016-02-11T08:22:34Z</time>
      </trkpt>
      <trkpt lat="43.96994" lon="-0.18578">
        <ele>121.26</ele>
        <time>2016-02-11T08:22:50Z</time>
      </trkpt>
      <trkpt lat="43.96991" lon="-0.18577">
        <ele>117.9</ele>
        <time>2016-02-11T08:22:54Z</time>
      </trkpt>
      <trkpt lat="43.96989" lon="-0.18575">
        <ele>114.53</ele>
        <time>2016-02-11T08:22:58Z</time>
      </trkpt>
      <trkpt lat="43.96987" lon="-0.18574">
        <ele>111.65</ele>
        <time>2016-02-11T08:23:05Z</time>
      </trkpt>
      <trkpt lat="43.96987" lon="-0.18573">
        <ele>108.29</ele>
        <time>2016-02-11T08:23:11Z</time>
      </trkpt>
      <trkpt lat="43.96988" lon="-0.18574">
        <ele>105.4</ele>
        <time>2016-02-11T08:23:17Z</time>
      </trkpt>
      <trkpt lat="43.96987" lon="-0.18571">
        <ele>102.04</ele>
        <time>2016-02-11T08:23:25Z</time>
      </trkpt>
      <trkpt lat="43.96991" lon="-0.18567">
        <ele>99.15</ele>
        <time>2016-02-11T08:23:38Z</time>
      </trkpt>
      <trkpt lat="43.96991" lon="-0.18567">
        <ele>96.75</ele>
        <time>2016-02-11T08:23:58Z</time>
      </trkpt>
      <trkpt lat="43.9699" lon="-0.18566">
        <ele>95.79</ele>
        <time>2016-02-11T08:24:16Z</time>
      </trkpt>
      <trkpt lat="43.96987" lon="-0.18565">
        <ele>95.79</ele>
        <time>2016-02-11T08:24:44Z</time>
      </trkpt>
      <trkpt lat="43.96987" lon="-0.18565">
        <ele>95.79</ele>
        <time>2016-02-11T08:25:03Z</time>
      </trkpt>
      <trkpt lat="43.96987" lon="-0.18565">
        <ele>95.79</ele>
        <time>2016-02-11T08:25:25Z</time>
      </trkpt>
      <trkpt lat="43.96995" lon="-0.18566">
        <ele>95.31</ele>
        <time>2016-02-11T08:25:39Z</time>
      </trkpt>
      <trkpt lat="43.96999" lon="-0.18566">
        <ele>95.31</ele>
        <time>2016-02-11T08:25:43Z</time>
      </trkpt>
      <trkpt lat="43.97013" lon="-0.18563">
        <ele>95.31</ele>
        <time>2016-02-11T08:25:59Z</time>
      </trkpt>
      <trkpt lat="43.97017" lon="-0.1856">
        <ele>95.79</ele>
        <time>2016-02-11T08:26:12Z</time>
      </trkpt>
      <trkpt lat="43.97026" lon="-0.18566">
        <ele>95.31</ele>
        <time>2016-02-11T08:26:21Z</time>
      </trkpt>
      <trkpt lat="43.97048" lon="-0.18579">
        <ele>95.31</ele>
        <time>2016-02-11T08:26:39Z</time>
      </trkpt>
      <trkpt lat="43.97057" lon="-0.18585">
        <ele>94.83</ele>
        <time>2016-02-11T08:26:47Z</time>
      </trkpt>
      <trkpt lat="43.9707" lon="-0.18598">
        <ele>93.87</ele>
        <time>2016-02-11T08:27:01Z</time>
      </trkpt>
      <trkpt lat="43.97089" lon="-0.18608">
        <ele>92.9</ele>
        <time>2016-02-11T08:27:19Z</time>
      </trkpt>
      <trkpt lat="43.97108" lon="-0.18623">
        <ele>90.5</ele>
        <time>2016-02-11T08:27:39Z</time>
      </trkpt>
      <trkpt lat="43.97111" lon="-0.18625">
        <ele>89.06</ele>
        <time>2016-02-11T08:27:53Z</time>
      </trkpt>
      <trkpt lat="43.97111" lon="-0.18623">
        <ele>89.06</ele>
        <time>2016-02-11T08:28:11Z</time>
      </trkpt>
      <trkpt lat="43.97117" lon="-0.1863">
        <ele>88.1</ele>
        <time>2016-02-11T08:28:31Z</time>
      </trkpt>
      <trkpt lat="43.97124" lon="-0.18632">
        <ele>87.62</ele>
        <time>2016-02-11T08:28:44Z</time>
      </trkpt>
      <trkpt lat="43.97125" lon="-0.18632">
        <ele>87.14</ele>
        <time>2016-02-11T08:28:45Z</time>
      </trkpt>
      <trkpt lat="43.97136" lon="-0.18629">
        <ele>86.18</ele>
        <time>2016-02-11T08:28:57Z</time>
      </trkpt>
      <trkpt lat="43.97139" lon="-0.18628">
        <ele>86.18</ele>
        <time>2016-02-11T08:28:59Z</time>
      </trkpt>
      <trkpt lat="43.97145" lon="-0.18624">
        <ele>86.18</ele>
        <time>2016-02-11T08:29:04Z</time>
      </trkpt>
      <trkpt lat="43.97163" lon="-0.18609">
        <ele>84.25</ele>
        <time>2016-02-11T08:29:20Z</time>
      </trkpt>
      <trkpt lat="43.97168" lon="-0.18605">
        <ele>83.77</ele>
        <time>2016-02-11T08:29:26Z</time>
      </trkpt>
      <trkpt lat="43.97171" lon="-0.18604">
        <ele>83.29</ele>
        <time>2016-02-11T08:29:29Z</time>
      </trkpt>
      <trkpt lat="43.97188" lon="-0.186">
        <ele>81.85</ele>
        <time>2016-02-11T08:29:43Z</time>
      </trkpt>
      <trkpt lat="43.97207" lon="-0.18592">
        <ele>81.37</ele>
        <time>2016-02-11T08:30:00Z</time>
      </trkpt>
      <trkpt lat="43.97208" lon="-0.1859">
        <ele>80.89</ele>
        <time>2016-02-11T08:30:02Z</time>
      </trkpt>
      <trkpt lat="43.97224" lon="-0.1859">
        <ele>81.85</ele>
        <time>2016-02-11T08:30:18Z</time>
      </trkpt>
      <trkpt lat="43.97235" lon="-0.18592">
        <ele>81.37</ele>
        <time>2016-02-11T08:30:30Z</time>
      </trkpt>
      <trkpt lat="43.97251" lon="-0.18591">
        <ele>82.33</ele>
        <time>2016-02-11T08:30:46Z</time>
      </trkpt>
      <trkpt lat="43.97269" lon="-0.18593">
        <ele>82.33</ele>
        <time>2016-02-11T08:31:02Z</time>
      </trkpt>
      <trkpt lat="43.97276" lon="-0.18594">
        <ele>82.33</ele>
        <time>2016-02-11T08:31:08Z</time>
      </trkpt>
      <trkpt lat="43.9729" lon="-0.18599">
        <ele>82.33</ele>
        <time>2016-02-11T08:31:21Z</time>
      </trkpt>
      <trkpt lat="43.97311" lon="-0.18608">
        <ele>81.85</ele>
        <time>2016-02-11T08:31:39Z</time>
      </trkpt>
      <trkpt lat="43.97321" lon="-0.18612">
        <ele>81.37</ele>
        <time>2016-02-11T08:31:58Z</time>
      </trkpt>
      <trkpt lat="43.97334" lon="-0.18611">
        <ele>80.89</ele>
        <time>2016-02-11T08:32:16Z</time>
      </trkpt>
      <trkpt lat="43.97346" lon="-0.18609">
        <ele>80.89</ele>
        <time>2016-02-11T08:32:36Z</time>
      </trkpt>
      <trkpt lat="43.97363" lon="-0.18601">
        <ele>81.37</ele>
        <time>2016-02-11T08:32:53Z</time>
      </trkpt>
      <trkpt lat="43.97376" lon="-0.18591">
        <ele>80.41</ele>
        <time>2016-02-11T08:33:08Z</time>
      </trkpt>
      <trkpt lat="43.97392" lon="-0.18578">
        <ele>80.89</ele>
        <time>2016-02-11T08:33:23Z</time>
      </trkpt>
      <trkpt lat="43.9741" lon="-0.18559">
        <ele>81.37</ele>
        <time>2016-02-11T08:33:42Z</time>
      </trkpt>
      <trkpt lat="43.9742" lon="-0.18541">
        <ele>81.37</ele>
        <time>2016-02-11T08:34:00Z</time>
      </trkpt>
      <trkpt lat="43.97419" lon="-0.18538">
        <ele>80.41</ele>
        <time>2016-02-11T08:34:17Z</time>
      </trkpt>
      <trkpt lat="43.97428" lon="-0.18523">
        <ele>75.6</ele>
        <time>2016-02-11T08:34:29Z</time>
      </trkpt>
      <trkpt lat="43.97428" lon="-0.18521">
        <ele>78.97</ele>
        <time>2016-02-11T08:34:30Z</time>
      </trkpt>
      <trkpt lat="43.9743" lon="-0.18517">
        <ele>82.81</ele>
        <time>2016-02-11T08:34:32Z</time>
      </trkpt>
      <trkpt lat="43.97445" lon="-0.18492">
        <ele>81.37</ele>
        <time>2016-02-11T08:34:48Z</time>
      </trkpt>
      <trkpt lat="43.9745" lon="-0.18483">
        <ele>81.85</ele>
        <time>2016-02-11T08:34:54Z</time>
      </trkpt>
      <trkpt lat="43.97456" lon="-0.18468">
        <ele>81.85</ele>
        <time>2016-02-11T08:35:02Z</time>
      </trkpt>
      <trkpt lat="43.97463" lon="-0.18446">
        <ele>81.85</ele>
        <time>2016-02-11T08:35:16Z</time>
      </trkpt>
      <trkpt lat="43.97471" lon="-0.18424">
        <ele>81.85</ele>
        <time>2016-02-11T08:35:32Z</time>
      </trkpt>
      <trkpt lat="43.97481" lon="-0.18395">
        <ele>81.85</ele>
        <time>2016-02-11T08:35:49Z</time>
      </trkpt>
      <trkpt lat="43.97484" lon="-0.18388">
        <ele>81.85</ele>
        <time>2016-02-11T08:35:54Z</time>
      </trkpt>
      <trkpt lat="43.97493" lon="-0.18365">
        <ele>81.85</ele>
        <time>2016-02-11T08:36:09Z</time>
      </trkpt>
      <trkpt lat="43.97508" lon="-0.18339">
        <ele>82.81</ele>
        <time>2016-02-11T08:36:27Z</time>
      </trkpt>
      <trkpt lat="43.97516" lon="-0.18314">
        <ele>82.33</ele>
        <time>2016-02-11T08:36:44Z</time>
      </trkpt>
      <trkpt lat="43.97521" lon="-0.18299">
        <ele>82.81</ele>
        <time>2016-02-11T08:36:54Z</time>
      </trkpt>
      <trkpt lat="43.97525" lon="-0.18287">
        <ele>82.33</ele>
        <time>2016-02-11T08:37:03Z</time>
      </trkpt>
      <trkpt lat="43.97535" lon="-0.18259">
        <ele>81.85</ele>
        <time>2016-02-11T08:37:21Z</time>
      </trkpt>
      <trkpt lat="43.97546" lon="-0.18233">
        <ele>81.37</ele>
        <time>2016-02-11T08:37:39Z</time>
      </trkpt>
      <trkpt lat="43.97552" lon="-0.18215">
        <ele>81.85</ele>
        <time>2016-02-11T08:37:51Z</time>
      </trkpt>
      <trkpt lat="43.97563" lon="-0.18191">
        <ele>81.85</ele>
        <time>2016-02-11T08:38:08Z</time>
      </trkpt>
      <trkpt lat="43.97573" lon="-0.1817">
        <ele>82.33</ele>
        <time>2016-02-11T08:38:23Z</time>
      </trkpt>
      <trkpt lat="43.97585" lon="-0.18141">
        <ele>82.33</ele>
        <time>2016-02-11T08:38:43Z</time>
      </trkpt>
      <trkpt lat="43.97595" lon="-0.1811">
        <ele>82.81</ele>
        <time>2016-02-11T08:39:04Z</time>
      </trkpt>
      <trkpt lat="43.97605" lon="-0.18088">
        <ele>82.33</ele>
        <time>2016-02-11T08:39:20Z</time>
      </trkpt>
      <trkpt lat="43.97617" lon="-0.18062">
        <ele>82.81</ele>
        <time>2016-02-11T08:39:39Z</time>
      </trkpt>
      <trkpt lat="43.97628" lon="-0.18036">
        <ele>82.81</ele>
        <time>2016-02-11T08:39:57Z</time>
      </trkpt>
      <trkpt lat="43.97639" lon="-0.18009">
        <ele>83.29</ele>
        <time>2016-02-11T08:40:16Z</time>
      </trkpt>
      <trkpt lat="43.97649" lon="-0.17984">
        <ele>82.81</ele>
        <time>2016-02-11T08:40:34Z</time>
      </trkpt>
      <trkpt lat="43.97658" lon="-0.17962">
        <ele>82.33</ele>
        <time>2016-02-11T08:40:50Z</time>
      </trkpt>
      <trkpt lat="43.97669" lon="-0.17936">
        <ele>82.81</ele>
        <time>2016-02-11T08:41:07Z</time>
      </trkpt>
      <trkpt lat="43.97679" lon="-0.1791">
        <ele>83.29</ele>
        <time>2016-02-11T08:41:25Z</time>
      </trkpt>
      <trkpt lat="43.97689" lon="-0.17886">
        <ele>84.73</ele>
        <time>2016-02-11T08:41:43Z</time>
      </trkpt>
      <trkpt lat="43.97701" lon="-0.17859">
        <ele>85.69</ele>
        <time>2016-02-11T08:42:01Z</time>
      </trkpt>
      <trkpt lat="43.9771" lon="-0.17836">
        <ele>86.18</ele>
        <time>2016-02-11T08:42:18Z</time>
      </trkpt>
      <trkpt lat="43.97722" lon="-0.17811">
        <ele>87.14</ele>
        <time>2016-02-11T08:42:36Z</time>
      </trkpt>
      <trkpt lat="43.97731" lon="-0.17789">
        <ele>88.58</ele>
        <time>2016-02-11T08:42:52Z</time>
      </trkpt>
      <trkpt lat="43.97739" lon="-0.17765">
        <ele>90.02</ele>
        <time>2016-02-11T08:43:08Z</time>
      </trkpt>
      <trkpt lat="43.97748" lon="-0.17743">
        <ele>91.46</ele>
        <time>2016-02-11T08:43:26Z</time>
      </trkpt>
      <trkpt lat="43.97749" lon="-0.17738">
        <ele>91.94</ele>
        <time>2016-02-11T08:43:30Z</time>
      </trkpt>
      <trkpt lat="43.97759" lon="-0.17711">
        <ele>92.9</ele>
        <time>2016-02-11T08:43:48Z</time>
      </trkpt>
      <trkpt lat="43.97765" lon="-0.17694">
        <ele>93.39</ele>
        <time>2016-02-11T08:44:00Z</time>
      </trkpt>
      <trkpt lat="43.97767" lon="-0.17687">
        <ele>93.87</ele>
        <time>2016-02-11T08:44:06Z</time>
      </trkpt>
      <trkpt lat="43.97774" lon="-0.17664">
        <ele>95.31</ele>
        <time>2016-02-11T08:44:24Z</time>
      </trkpt>
      <trkpt lat="43.9778" lon="-0.17642">
        <ele>96.75</ele>
        <time>2016-02-11T08:44:40Z</time>
      </trkpt>
      <trkpt lat="43.97786" lon="-0.17616">
        <ele>97.71</ele>
        <time>2016-02-11T08:44:57Z</time>
      </trkpt>
      <trkpt lat="43.97791" lon="-0.176">
        <ele>98.19</ele>
        <time>2016-02-11T08:45:10Z</time>
      </trkpt>
      <trkpt lat="43.97796" lon="-0.17579">
        <ele>100.11</ele>
        <time>2016-02-11T08:45:26Z</time>
      </trkpt>
      <trkpt lat="43.97802" lon="-0.17559">
        <ele>101.08</ele>
        <time>2016-02-11T08:45:41Z</time>
      </trkpt>
      <trkpt lat="43.97804" lon="-0.17538">
        <ele>102.52</ele>
        <time>2016-02-11T08:45:55Z</time>
      </trkpt>
      <trkpt lat="43.97805" lon="-0.17531">
        <ele>102.52</ele>
        <time>2016-02-11T08:46:00Z</time>
      </trkpt>
      <trkpt lat="43.97804" lon="-0.17517">
        <ele>103.96</ele>
        <time>2016-02-11T08:46:12Z</time>
      </trkpt>
      <trkpt lat="43.97802" lon="-0.17493">
        <ele>104.44</ele>
        <time>2016-02-11T08:46:28Z</time>
      </trkpt>
      <trkpt lat="43.97795" lon="-0.17468">
        <ele>105.88</ele>
        <time>2016-02-11T08:46:45Z</time>
      </trkpt>
      <trkpt lat="43.9779" lon="-0.17443">
        <ele>107.32</ele>
        <time>2016-02-11T08:47:01Z</time>
      </trkpt>
      <trkpt lat="43.97786" lon="-0.17427">
        <ele>108.77</ele>
        <time>2016-02-11T08:47:16Z</time>
      </trkpt>
      <trkpt lat="43.9778" lon="-0.17407">
        <ele>109.25</ele>
        <time>2016-02-11T08:47:30Z</time>
      </trkpt>
      <trkpt lat="43.97775" lon="-0.17386">
        <ele>110.21</ele>
        <time>2016-02-11T08:47:44Z</time>
      </trkpt>
      <trkpt lat="43.9777" lon="-0.17368">
        <ele>110.69</ele>
        <time>2016-02-11T08:47:58Z</time>
      </trkpt>
      <trkpt lat="43.97766" lon="-0.17342">
        <ele>111.65</ele>
        <time>2016-02-11T08:48:15Z</time>
      </trkpt>
      <trkpt lat="43.97766" lon="-0.17338">
        <ele>112.13</ele>
        <time>2016-02-11T08:48:18Z</time>
      </trkpt>
      <trkpt lat="43.97765" lon="-0.17314">
        <ele>113.09</ele>
        <time>2016-02-11T08:48:33Z</time>
      </trkpt>
      <trkpt lat="43.97765" lon="-0.17295">
        <ele>114.53</ele>
        <time>2016-02-11T08:48:48Z</time>
      </trkpt>
      <trkpt lat="43.97766" lon="-0.17288">
        <ele>114.05</ele>
        <time>2016-02-11T08:49:02Z</time>
      </trkpt>
      <trkpt lat="43.97767" lon="-0.17287">
        <ele>113.57</ele>
        <time>2016-02-11T08:49:16Z</time>
      </trkpt>
      <trkpt lat="43.97767" lon="-0.17289">
        <ele>114.05</ele>
        <time>2016-02-11T08:49:35Z</time>
      </trkpt>
      <trkpt lat="43.97767" lon="-0.17288">
        <ele>113.57</ele>
        <time>2016-02-11T08:49:48Z</time>
      </trkpt>
      <trkpt lat="43.97769" lon="-0.17288">
        <ele>114.53</ele>
        <time>2016-02-11T08:50:03Z</time>
      </trkpt>
      <trkpt lat="43.9778" lon="-0.17291">
        <ele>115.5</ele>
        <time>2016-02-11T08:50:15Z</time>
      </trkpt>
      <trkpt lat="43.97796" lon="-0.17298">
        <ele>115.98</ele>
        <time>2016-02-11T08:50:29Z</time>
      </trkpt>
      <trkpt lat="43.97813" lon="-0.17306">
        <ele>115.98</ele>
        <time>2016-02-11T08:50:44Z</time>
      </trkpt>
      <trkpt lat="43.97831" lon="-0.17316">
        <ele>116.46</ele>
        <time>2016-02-11T08:51:01Z</time>
      </trkpt>
      <trkpt lat="43.97834" lon="-0.17317">
        <ele>116.46</ele>
        <time>2016-02-11T08:51:06Z</time>
      </trkpt>
      <trkpt lat="43.9784" lon="-0.17321">
        <ele>116.94</ele>
        <time>2016-02-11T08:51:12Z</time>
      </trkpt>
      <trkpt lat="43.97857" lon="-0.17326">
        <ele>117.42</ele>
        <time>2016-02-11T08:51:28Z</time>
      </trkpt>
      <trkpt lat="43.97876" lon="-0.17326">
        <ele>117.9</ele>
        <time>2016-02-11T08:51:45Z</time>
      </trkpt>
      <trkpt lat="43.9789" lon="-0.17326">
        <ele>117.9</ele>
        <time>2016-02-11T08:51:58Z</time>
      </trkpt>
      <trkpt lat="43.97909" lon="-0.17327">
        <ele>118.38</ele>
        <time>2016-02-11T08:52:16Z</time>
      </trkpt>
      <trkpt lat="43.97919" lon="-0.17326">
        <ele>118.38</ele>
        <time>2016-02-11T08:52:27Z</time>
      </trkpt>
      <trkpt lat="43.97925" lon="-0.17311">
        <ele>119.34</ele>
        <time>2016-02-11T08:52:42Z</time>
      </trkpt>
      <trkpt lat="43.97925" lon="-0.17306">
        <ele>119.82</ele>
        <time>2016-02-11T08:52:45Z</time>
      </trkpt>
      <trkpt lat="43.97924" lon="-0.17282">
        <ele>121.26</ele>
        <time>2016-02-11T08:53:02Z</time>
      </trkpt>
      <trkpt lat="43.97922" lon="-0.17261">
        <ele>121.26</ele>
        <time>2016-02-11T08:53:18Z</time>
      </trkpt>
      <trkpt lat="43.97919" lon="-0.17243">
        <ele>121.74</ele>
        <time>2016-02-11T08:53:31Z</time>
      </trkpt>
      <trkpt lat="43.97915" lon="-0.17219">
        <ele>121.26</ele>
        <time>2016-02-11T08:53:48Z</time>
      </trkpt>
      <trkpt lat="43.97915" lon="-0.17218">
        <ele>121.26</ele>
        <time>2016-02-11T08:53:49Z</time>
      </trkpt>
      <trkpt lat="43.97914" lon="-0.17197">
        <ele>121.26</ele>
        <time>2016-02-11T08:54:03Z</time>
      </trkpt>
      <trkpt lat="43.97925" lon="-0.17184">
        <ele>121.26</ele>
        <time>2016-02-11T08:54:18Z</time>
      </trkpt>
      <trkpt lat="43.97941" lon="-0.17178">
        <ele>120.3</ele>
        <time>2016-02-11T08:54:34Z</time>
      </trkpt>
      <trkpt lat="43.97954" lon="-0.17175">
        <ele>119.34</ele>
        <time>2016-02-11T08:54:47Z</time>
      </trkpt>
      <trkpt lat="43.97967" lon="-0.17172">
        <ele>118.86</ele>
        <time>2016-02-11T08:55:00Z</time>
      </trkpt>
      <trkpt lat="43.97978" lon="-0.17186">
        <ele>118.86</ele>
        <time>2016-02-11T08:55:14Z</time>
      </trkpt>
      <trkpt lat="43.97983" lon="-0.17203">
        <ele>118.86</ele>
        <time>2016-02-11T08:55:25Z</time>
      </trkpt>
      <trkpt lat="43.97987" lon="-0.17221">
        <ele>119.82</ele>
        <time>2016-02-11T08:55:39Z</time>
      </trkpt>
      <trkpt lat="43.97989" lon="-0.17232">
        <ele>119.82</ele>
        <time>2016-02-11T08:55:47Z</time>
      </trkpt>
      <trkpt lat="43.97995" lon="-0.17251">
        <ele>119.82</ele>
        <time>2016-02-11T08:56:01Z</time>
      </trkpt>
      <trkpt lat="43.98" lon="-0.17265">
        <ele>119.82</ele>
        <time>2016-02-11T08:56:14Z</time>
      </trkpt>
      <trkpt lat="43.98004" lon="-0.17276">
        <ele>119.82</ele>
        <time>2016-02-11T08:56:22Z</time>
      </trkpt>
      <trkpt lat="43.98009" lon="-0.17302">
        <ele>119.34</ele>
        <time>2016-02-11T08:56:38Z</time>
      </trkpt>
      <trkpt lat="43.98016" lon="-0.17321">
        <ele>119.82</ele>
        <time>2016-02-11T08:56:53Z</time>
      </trkpt>
      <trkpt lat="43.98019" lon="-0.17323">
        <ele>118.86</ele>
        <time>2016-02-11T08:56:56Z</time>
      </trkpt>
      <trkpt lat="43.98034" lon="-0.17325">
        <ele>117.42</ele>
        <time>2016-02-11T08:57:11Z</time>
      </trkpt>
      <trkpt lat="43.98054" lon="-0.17327">
        <ele>116.46</ele>
        <time>2016-02-11T08:57:29Z</time>
      </trkpt>
      <trkpt lat="43.98074" lon="-0.17331">
        <ele>115.5</ele>
        <time>2016-02-11T08:57:46Z</time>
      </trkpt>
      <trkpt lat="43.98091" lon="-0.17335">
        <ele>114.05</ele>
        <time>2016-02-11T08:58:01Z</time>
      </trkpt>
      <trkpt lat="43.98111" lon="-0.17339">
        <ele>113.09</ele>
        <time>2016-02-11T08:58:18Z</time>
      </trkpt>
      <trkpt lat="43.98125" lon="-0.17338">
        <ele>113.09</ele>
        <time>2016-02-11T08:58:30Z</time>
      </trkpt>
      <trkpt lat="43.98141" lon="-0.17342">
        <ele>112.13</ele>
        <time>2016-02-11T08:58:46Z</time>
      </trkpt>
      <trkpt lat="43.98147" lon="-0.17344">
        <ele>112.13</ele>
        <time>2016-02-11T08:58:51Z</time>
      </trkpt>
      <trkpt lat="43.98161" lon="-0.17348">
        <ele>112.61</ele>
        <time>2016-02-11T08:59:06Z</time>
      </trkpt>
      <trkpt lat="43.98164" lon="-0.17349">
        <ele>112.61</ele>
        <time>2016-02-11T08:59:09Z</time>
      </trkpt>
      <trkpt lat="43.98168" lon="-0.17349">
        <ele>112.61</ele>
        <time>2016-02-11T08:59:12Z</time>
      </trkpt>
      <trkpt lat="43.98184" lon="-0.17348">
        <ele>112.13</ele>
        <time>2016-02-11T08:59:26Z</time>
      </trkpt>
      <trkpt lat="43.9819" lon="-0.17347">
        <ele>111.65</ele>
        <time>2016-02-11T08:59:31Z</time>
      </trkpt>
      <trkpt lat="43.98203" lon="-0.17348">
        <ele>111.65</ele>
        <time>2016-02-11T08:59:42Z</time>
      </trkpt>
      <trkpt lat="43.98205" lon="-0.17347">
        <ele>112.13</ele>
        <time>2016-02-11T08:59:44Z</time>
      </trkpt>
      <trkpt lat="43.98224" lon="-0.17342">
        <ele>108.77</ele>
        <time>2016-02-11T09:00:00Z</time>
      </trkpt>
      <trkpt lat="43.98238" lon="-0.17333">
        <ele>107.81</ele>
        <time>2016-02-11T09:00:15Z</time>
      </trkpt>
      <trkpt lat="43.98252" lon="-0.17325">
        <ele>104.92</ele>
        <time>2016-02-11T09:00:31Z</time>
      </trkpt>
      <trkpt lat="43.98264" lon="-0.17318">
        <ele>103.48</ele>
        <time>2016-02-11T09:00:43Z</time>
      </trkpt>
      <trkpt lat="43.98278" lon="-0.1731">
        <ele>101.56</ele>
        <time>2016-02-11T09:00:58Z</time>
      </trkpt>
      <trkpt lat="43.98279" lon="-0.17309">
        <ele>101.56</ele>
        <time>2016-02-11T09:01:00Z</time>
      </trkpt>
      <trkpt lat="43.98287" lon="-0.17305">
        <ele>100.6</ele>
        <time>2016-02-11T09:01:08Z</time>
      </trkpt>
      <trkpt lat="43.98292" lon="-0.17303">
        <ele>99.63</ele>
        <time>2016-02-11T09:01:13Z</time>
      </trkpt>
      <trkpt lat="43.98303" lon="-0.17294">
        <ele>97.71</ele>
        <time>2016-02-11T09:01:27Z</time>
      </trkpt>
      <trkpt lat="43.98303" lon="-0.17293">
        <ele>97.23</ele>
        <time>2016-02-11T09:01:28Z</time>
      </trkpt>
      <trkpt lat="43.98309" lon="-0.17289">
        <ele>96.27</ele>
        <time>2016-02-11T09:01:35Z</time>
      </trkpt>
      <trkpt lat="43.98321" lon="-0.17282">
        <ele>94.83</ele>
        <time>2016-02-11T09:01:47Z</time>
      </trkpt>
      <trkpt lat="43.98325" lon="-0.17276">
        <ele>94.35</ele>
        <time>2016-02-11T09:01:53Z</time>
      </trkpt>
      <trkpt lat="43.98329" lon="-0.17274">
        <ele>94.35</ele>
        <time>2016-02-11T09:01:56Z</time>
      </trkpt>
      <trkpt lat="43.98338" lon="-0.17267">
        <ele>93.87</ele>
        <time>2016-02-11T09:02:05Z</time>
      </trkpt>
      <trkpt lat="43.98348" lon="-0.1726">
        <ele>93.87</ele>
        <time>2016-02-11T09:02:19Z</time>
      </trkpt>
      <trkpt lat="43.98358" lon="-0.17257">
        <ele>93.39</ele>
        <time>2016-02-11T09:02:29Z</time>
      </trkpt>
      <trkpt lat="43.98364" lon="-0.17257">
        <ele>93.39</ele>
        <time>2016-02-11T09:02:35Z</time>
      </trkpt>
      <trkpt lat="43.98375" lon="-0.17259">
        <ele>93.39</ele>
        <time>2016-02-11T09:02:47Z</time>
      </trkpt>
      <trkpt lat="43.98379" lon="-0.1726">
        <ele>93.39</ele>
        <time>2016-02-11T09:02:50Z</time>
      </trkpt>
      <trkpt lat="43.98381" lon="-0.17261">
        <ele>93.39</ele>
        <time>2016-02-11T09:02:53Z</time>
      </trkpt>
      <trkpt lat="43.98393" lon="-0.17263">
        <ele>93.87</ele>
        <time>2016-02-11T09:03:06Z</time>
      </trkpt>
      <trkpt lat="43.98395" lon="-0.17262">
        <ele>93.87</ele>
        <time>2016-02-11T09:03:09Z</time>
      </trkpt>
      <trkpt lat="43.98405" lon="-0.17262">
        <ele>94.83</ele>
        <time>2016-02-11T09:03:18Z</time>
      </trkpt>
      <trkpt lat="43.98421" lon="-0.17261">
        <ele>96.75</ele>
        <time>2016-02-11T09:03:31Z</time>
      </trkpt>
      <trkpt lat="43.98422" lon="-0.17261">
        <ele>96.75</ele>
        <time>2016-02-11T09:03:32Z</time>
      </trkpt>
      <trkpt lat="43.98434" lon="-0.17255">
        <ele>99.15</ele>
        <time>2016-02-11T09:03:48Z</time>
      </trkpt>
      <trkpt lat="43.98442" lon="-0.17245">
        <ele>101.56</ele>
        <time>2016-02-11T09:04:02Z</time>
      </trkpt>
      <trkpt lat="43.98454" lon="-0.1723">
        <ele>103</ele>
        <time>2016-02-11T09:04:18Z</time>
      </trkpt>
      <trkpt lat="43.98464" lon="-0.17226">
        <ele>105.88</ele>
        <time>2016-02-11T09:04:33Z</time>
      </trkpt>
      <trkpt lat="43.98472" lon="-0.17217">
        <ele>106.84</ele>
        <time>2016-02-11T09:04:46Z</time>
      </trkpt>
      <trkpt lat="43.98484" lon="-0.17209">
        <ele>108.29</ele>
        <time>2016-02-11T09:04:58Z</time>
      </trkpt>
      <trkpt lat="43.98494" lon="-0.17202">
        <ele>109.25</ele>
        <time>2016-02-11T09:05:09Z</time>
      </trkpt>
      <trkpt lat="43.98501" lon="-0.17197">
        <ele>110.21</ele>
        <time>2016-02-11T09:05:20Z</time>
      </trkpt>
      <trkpt lat="43.9851" lon="-0.17189">
        <ele>111.17</ele>
        <time>2016-02-11T09:05:33Z</time>
      </trkpt>
      <trkpt lat="43.98513" lon="-0.17183">
        <ele>112.61</ele>
        <time>2016-02-11T09:05:46Z</time>
      </trkpt>
      <trkpt lat="43.9852" lon="-0.17173">
        <ele>114.05</ele>
        <time>2016-02-11T09:05:58Z</time>
      </trkpt>
      <trkpt lat="43.98532" lon="-0.17161">
        <ele>114.05</ele>
        <time>2016-02-11T09:06:10Z</time>
      </trkpt>
      <trkpt lat="43.98542" lon="-0.1715">
        <ele>114.05</ele>
        <time>2016-02-11T09:06:22Z</time>
      </trkpt>
      <trkpt lat="43.98553" lon="-0.17142">
        <ele>115.5</ele>
        <time>2016-02-11T09:06:33Z</time>
      </trkpt>
      <trkpt lat="43.9857" lon="-0.17133">
        <ele>117.9</ele>
        <time>2016-02-11T09:06:50Z</time>
      </trkpt>
      <trkpt lat="43.98581" lon="-0.17127">
        <ele>119.82</ele>
        <time>2016-02-11T09:07:04Z</time>
      </trkpt>
      <trkpt lat="43.98592" lon="-0.17116">
        <ele>121.74</ele>
        <time>2016-02-11T09:07:18Z</time>
      </trkpt>
      <trkpt lat="43.98594" lon="-0.17105">
        <ele>122.22</ele>
        <time>2016-02-11T09:07:32Z</time>
      </trkpt>
      <trkpt lat="43.98593" lon="-0.17095">
        <ele>121.74</ele>
        <time>2016-02-11T09:07:48Z</time>
      </trkpt>
      <trkpt lat="43.98591" lon="-0.17092">
        <ele>121.74</ele>
        <time>2016-02-11T09:08:07Z</time>
      </trkpt>
      <trkpt lat="43.9859" lon="-0.17089">
        <ele>121.74</ele>
        <time>2016-02-11T09:08:28Z</time>
      </trkpt>
      <trkpt lat="43.9859" lon="-0.17087">
        <ele>121.26</ele>
        <time>2016-02-11T09:08:36Z</time>
      </trkpt>
      <trkpt lat="43.98588" lon="-0.1707">
        <ele>120.3</ele>
        <time>2016-02-11T09:08:50Z</time>
      </trkpt>
      <trkpt lat="43.98591" lon="-0.17065">
        <ele>120.3</ele>
        <time>2016-02-11T09:08:54Z</time>
      </trkpt>
      <trkpt lat="43.98602" lon="-0.17057">
        <ele>120.78</ele>
        <time>2016-02-11T09:09:02Z</time>
      </trkpt>
      <trkpt lat="43.98618" lon="-0.17049">
        <ele>122.22</ele>
        <time>2016-02-11T09:09:20Z</time>
      </trkpt>
      <trkpt lat="43.98631" lon="-0.17044">
        <ele>122.71</ele>
        <time>2016-02-11T09:09:34Z</time>
      </trkpt>
      <trkpt lat="43.98645" lon="-0.17035">
        <ele>122.22</ele>
        <time>2016-02-11T09:09:50Z</time>
      </trkpt>
      <trkpt lat="43.98658" lon="-0.17028">
        <ele>121.74</ele>
        <time>2016-02-11T09:10:04Z</time>
      </trkpt>
      <trkpt lat="43.98678" lon="-0.17018">
        <ele>121.74</ele>
        <time>2016-02-11T09:10:24Z</time>
      </trkpt>
      <trkpt lat="43.98693" lon="-0.17009">
        <ele>122.22</ele>
        <time>2016-02-11T09:10:40Z</time>
      </trkpt>
      <trkpt lat="43.98713" lon="-0.16999">
        <ele>122.22</ele>
        <time>2016-02-11T09:10:57Z</time>
      </trkpt>
      <trkpt lat="43.98729" lon="-0.16993">
        <ele>124.15</ele>
        <time>2016-02-11T09:11:14Z</time>
      </trkpt>
      <trkpt lat="43.9874" lon="-0.16987">
        <ele>125.59</ele>
        <time>2016-02-11T09:11:28Z</time>
      </trkpt>
      <trkpt lat="43.98747" lon="-0.16983">
        <ele>126.55</ele>
        <time>2016-02-11T09:11:37Z</time>
      </trkpt>
      <trkpt lat="43.9876" lon="-0.16976">
        <ele>127.51</ele>
        <time>2016-02-11T09:11:51Z</time>
      </trkpt>
      <trkpt lat="43.98775" lon="-0.16967">
        <ele>128.47</ele>
        <time>2016-02-11T09:12:07Z</time>
      </trkpt>
      <trkpt lat="43.98781" lon="-0.16964">
        <ele>128.95</ele>
        <time>2016-02-11T09:12:15Z</time>
      </trkpt>
      <trkpt lat="43.98794" lon="-0.16958">
        <ele>129.92</ele>
        <time>2016-02-11T09:12:28Z</time>
      </trkpt>
      <trkpt lat="43.98806" lon="-0.16952">
        <ele>129.92</ele>
        <time>2016-02-11T09:12:42Z</time>
      </trkpt>
      <trkpt lat="43.98815" lon="-0.16948">
        <ele>130.4</ele>
        <time>2016-02-11T09:12:53Z</time>
      </trkpt>
      <trkpt lat="43.98825" lon="-0.16949">
        <ele>130.88</ele>
        <time>2016-02-11T09:13:03Z</time>
      </trkpt>
      <trkpt lat="43.98839" lon="-0.16951">
        <ele>131.84</ele>
        <time>2016-02-11T09:13:18Z</time>
      </trkpt>
      <trkpt lat="43.98853" lon="-0.1695">
        <ele>131.84</ele>
        <time>2016-02-11T09:13:32Z</time>
      </trkpt>
      <trkpt lat="43.98864" lon="-0.16941">
        <ele>131.84</ele>
        <time>2016-02-11T09:13:48Z</time>
      </trkpt>
      <trkpt lat="43.98866" lon="-0.1694">
        <ele>132.32</ele>
        <time>2016-02-11T09:13:50Z</time>
      </trkpt>
      <trkpt lat="43.98876" lon="-0.16935">
        <ele>131.84</ele>
        <time>2016-02-11T09:14:00Z</time>
      </trkpt>
      <trkpt lat="43.98879" lon="-0.16938">
        <ele>132.32</ele>
        <time>2016-02-11T09:14:04Z</time>
      </trkpt>
      <trkpt lat="43.98886" lon="-0.16938">
        <ele>131.84</ele>
        <time>2016-02-11T09:14:13Z</time>
      </trkpt>
      <trkpt lat="43.989" lon="-0.16929">
        <ele>131.84</ele>
        <time>2016-02-11T09:14:28Z</time>
      </trkpt>
      <trkpt lat="43.98916" lon="-0.16919">
        <ele>131.36</ele>
        <time>2016-02-11T09:14:43Z</time>
      </trkpt>
      <trkpt lat="43.9893" lon="-0.16914">
        <ele>130.4</ele>
        <time>2016-02-11T09:14:57Z</time>
      </trkpt>
      <trkpt lat="43.98944" lon="-0.16907">
        <ele>129.92</ele>
        <time>2016-02-11T09:15:12Z</time>
      </trkpt>
      <trkpt lat="43.98959" lon="-0.16898">
        <ele>129.43</ele>
        <time>2016-02-11T09:15:28Z</time>
      </trkpt>
      <trkpt lat="43.98976" lon="-0.1689">
        <ele>128.95</ele>
        <time>2016-02-11T09:15:44Z</time>
      </trkpt>
      <trkpt lat="43.98992" lon="-0.16881">
        <ele>128.47</ele>
        <time>2016-02-11T09:15:59Z</time>
      </trkpt>
      <trkpt lat="43.99007" lon="-0.16872">
        <ele>129.43</ele>
        <time>2016-02-11T09:16:15Z</time>
      </trkpt>
      <trkpt lat="43.99024" lon="-0.16863">
        <ele>129.43</ele>
        <time>2016-02-11T09:16:31Z</time>
      </trkpt>
      <trkpt lat="43.99032" lon="-0.16858">
        <ele>129.92</ele>
        <time>2016-02-11T09:16:40Z</time>
      </trkpt>
      <trkpt lat="43.99039" lon="-0.16854">
        <ele>129.92</ele>
        <time>2016-02-11T09:16:47Z</time>
      </trkpt>
      <trkpt lat="43.99054" lon="-0.16846">
        <ele>129.92</ele>
        <time>2016-02-11T09:17:03Z</time>
      </trkpt>
      <trkpt lat="43.99062" lon="-0.16843">
        <ele>130.4</ele>
        <time>2016-02-11T09:17:12Z</time>
      </trkpt>
      <trkpt lat="43.99065" lon="-0.16845">
        <ele>130.88</ele>
        <time>2016-02-11T09:17:15Z</time>
      </trkpt>
      <trkpt lat="43.99069" lon="-0.16851">
        <ele>130.88</ele>
        <time>2016-02-11T09:17:20Z</time>
      </trkpt>
      <trkpt lat="43.99074" lon="-0.16869">
        <ele>130.88</ele>
        <time>2016-02-11T09:17:35Z</time>
      </trkpt>
      <trkpt lat="43.99074" lon="-0.16872">
        <ele>130.88</ele>
        <time>2016-02-11T09:17:51Z</time>
      </trkpt>
      <trkpt lat="43.99074" lon="-0.16872">
        <ele>130.4</ele>
        <time>2016-02-11T09:18:15Z</time>
      </trkpt>
      <trkpt lat="43.99076" lon="-0.1688">
        <ele>130.88</ele>
        <time>2016-02-11T09:18:31Z</time>
      </trkpt>
      <trkpt lat="43.99082" lon="-0.16882">
        <ele>132.32</ele>
        <time>2016-02-11T09:18:45Z</time>
      </trkpt>
      <trkpt lat="43.99085" lon="-0.16891">
        <ele>132.32</ele>
        <time>2016-02-11T09:18:58Z</time>
      </trkpt>
      <trkpt lat="43.99093" lon="-0.16895">
        <ele>132.8</ele>
        <time>2016-02-11T09:19:14Z</time>
      </trkpt>
      <trkpt lat="43.99097" lon="-0.16906">
        <ele>132.32</ele>
        <time>2016-02-11T09:19:28Z</time>
      </trkpt>
      <trkpt lat="43.99097" lon="-0.16918">
        <ele>131.36</ele>
        <time>2016-02-11T09:19:38Z</time>
      </trkpt>
      <trkpt lat="43.99098" lon="-0.16931">
        <ele>131.84</ele>
        <time>2016-02-11T09:19:48Z</time>
      </trkpt>
      <trkpt lat="43.991" lon="-0.16936">
        <ele>132.32</ele>
        <time>2016-02-11T09:19:52Z</time>
      </trkpt>
      <trkpt lat="43.99102" lon="-0.16959">
        <ele>131.84</ele>
        <time>2016-02-11T09:20:09Z</time>
      </trkpt>
      <trkpt lat="43.99103" lon="-0.16967">
        <ele>131.84</ele>
        <time>2016-02-11T09:20:16Z</time>
      </trkpt>
      <trkpt lat="43.991" lon="-0.16973">
        <ele>131.84</ele>
        <time>2016-02-11T09:20:22Z</time>
      </trkpt>
      <trkpt lat="43.99099" lon="-0.16993">
        <ele>132.32</ele>
        <time>2016-02-11T09:20:35Z</time>
      </trkpt>
      <trkpt lat="43.99096" lon="-0.17016">
        <ele>131.84</ele>
        <time>2016-02-11T09:20:52Z</time>
      </trkpt>
      <trkpt lat="43.99089" lon="-0.17038">
        <ele>131.36</ele>
        <time>2016-02-11T09:21:08Z</time>
      </trkpt>
      <trkpt lat="43.99083" lon="-0.17062">
        <ele>131.36</ele>
        <time>2016-02-11T09:21:25Z</time>
      </trkpt>
      <trkpt lat="43.99076" lon="-0.17087">
        <ele>130.4</ele>
        <time>2016-02-11T09:21:41Z</time>
      </trkpt>
      <trkpt lat="43.99069" lon="-0.17115">
        <ele>129.43</ele>
        <time>2016-02-11T09:21:59Z</time>
      </trkpt>
      <trkpt lat="43.99069" lon="-0.17116">
        <ele>129.43</ele>
        <time>2016-02-11T09:22:00Z</time>
      </trkpt>
      <trkpt lat="43.99062" lon="-0.17142">
        <ele>128.95</ele>
        <time>2016-02-11T09:22:18Z</time>
      </trkpt>
      <trkpt lat="43.99056" lon="-0.17167">
        <ele>128.47</ele>
        <time>2016-02-11T09:22:35Z</time>
      </trkpt>
      <trkpt lat="43.99053" lon="-0.17174">
        <ele>129.43</ele>
        <time>2016-02-11T09:22:40Z</time>
      </trkpt>
      <trkpt lat="43.99051" lon="-0.17181">
        <ele>128.95</ele>
        <time>2016-02-11T09:22:45Z</time>
      </trkpt>
      <trkpt lat="43.99045" lon="-0.17206">
        <ele>127.51</ele>
        <time>2016-02-11T09:23:03Z</time>
      </trkpt>
      <trkpt lat="43.99043" lon="-0.17216">
        <ele>128.47</ele>
        <time>2016-02-11T09:23:12Z</time>
      </trkpt>
      <trkpt lat="43.99045" lon="-0.17227">
        <ele>127.99</ele>
        <time>2016-02-11T09:23:26Z</time>
      </trkpt>
      <trkpt lat="43.9905" lon="-0.17225">
        <ele>127.51</ele>
        <time>2016-02-11T09:23:31Z</time>
      </trkpt>
      <trkpt lat="43.99055" lon="-0.17221">
        <ele>127.51</ele>
        <time>2016-02-11T09:23:37Z</time>
      </trkpt>
      <trkpt lat="43.99067" lon="-0.17208">
        <ele>127.51</ele>
        <time>2016-02-11T09:23:51Z</time>
      </trkpt>
      <trkpt lat="43.99079" lon="-0.17193">
        <ele>127.03</ele>
        <time>2016-02-11T09:24:06Z</time>
      </trkpt>
      <trkpt lat="43.99091" lon="-0.17178">
        <ele>127.03</ele>
        <time>2016-02-11T09:24:22Z</time>
      </trkpt>
      <trkpt lat="43.99106" lon="-0.1716">
        <ele>127.03</ele>
        <time>2016-02-11T09:24:39Z</time>
      </trkpt>
      <trkpt lat="43.9912" lon="-0.17144">
        <ele>126.55</ele>
        <time>2016-02-11T09:24:57Z</time>
      </trkpt>
      <trkpt lat="43.99126" lon="-0.17135">
        <ele>126.55</ele>
        <time>2016-02-11T09:25:06Z</time>
      </trkpt>
      <trkpt lat="43.99138" lon="-0.1712">
        <ele>126.07</ele>
        <time>2016-02-11T09:25:21Z</time>
      </trkpt>
      <trkpt lat="43.99148" lon="-0.17104">
        <ele>126.07</ele>
        <time>2016-02-11T09:25:35Z</time>
      </trkpt>
      <trkpt lat="43.99151" lon="-0.17101">
        <ele>126.07</ele>
        <time>2016-02-11T09:25:38Z</time>
      </trkpt>
      <trkpt lat="43.99165" lon="-0.17089">
        <ele>126.07</ele>
        <time>2016-02-11T09:25:52Z</time>
      </trkpt>
      <trkpt lat="43.99183" lon="-0.17087">
        <ele>126.55</ele>
        <time>2016-02-11T09:26:08Z</time>
      </trkpt>
      <trkpt lat="43.99198" lon="-0.17087">
        <ele>127.51</ele>
        <time>2016-02-11T09:26:21Z</time>
      </trkpt>
      <trkpt lat="43.99215" lon="-0.17087">
        <ele>127.51</ele>
        <time>2016-02-11T09:26:37Z</time>
      </trkpt>
      <trkpt lat="43.99231" lon="-0.17083">
        <ele>128.95</ele>
        <time>2016-02-11T09:26:53Z</time>
      </trkpt>
      <trkpt lat="43.99249" lon="-0.17079">
        <ele>130.4</ele>
        <time>2016-02-11T09:27:10Z</time>
      </trkpt>
      <trkpt lat="43.99266" lon="-0.17074">
        <ele>131.36</ele>
        <time>2016-02-11T09:27:26Z</time>
      </trkpt>
      <trkpt lat="43.99282" lon="-0.17068">
        <ele>130.88</ele>
        <time>2016-02-11T09:27:42Z</time>
      </trkpt>
      <trkpt lat="43.99302" lon="-0.17062">
        <ele>131.36</ele>
        <time>2016-02-11T09:27:59Z</time>
      </trkpt>
      <trkpt lat="43.99317" lon="-0.17056">
        <ele>131.36</ele>
        <time>2016-02-11T09:28:13Z</time>
      </trkpt>
      <trkpt lat="43.99332" lon="-0.1705">
        <ele>130.88</ele>
        <time>2016-02-11T09:28:27Z</time>
      </trkpt>
      <trkpt lat="43.99346" lon="-0.17049">
        <ele>129.92</ele>
        <time>2016-02-11T09:28:41Z</time>
      </trkpt>
      <trkpt lat="43.99353" lon="-0.17053">
        <ele>129.92</ele>
        <time>2016-02-11T09:28:48Z</time>
      </trkpt>
      <trkpt lat="43.99366" lon="-0.17061">
        <ele>128.95</ele>
        <time>2016-02-11T09:29:02Z</time>
      </trkpt>
      <trkpt lat="43.99375" lon="-0.17071">
        <ele>127.99</ele>
        <time>2016-02-11T09:29:15Z</time>
      </trkpt>
      <trkpt lat="43.99384" lon="-0.17085">
        <ele>128.47</ele>
        <time>2016-02-11T09:29:30Z</time>
      </trkpt>
      <trkpt lat="43.99393" lon="-0.17101">
        <ele>128.95</ele>
        <time>2016-02-11T09:29:43Z</time>
      </trkpt>
      <trkpt lat="43.99401" lon="-0.1711">
        <ele>128.47</ele>
        <time>2016-02-11T09:29:57Z</time>
      </trkpt>
      <trkpt lat="43.99404" lon="-0.17114">
        <ele>127.99</ele>
        <time>2016-02-11T09:30:00Z</time>
      </trkpt>
      <trkpt lat="43.99417" lon="-0.17131">
        <ele>128.47</ele>
        <time>2016-02-11T09:30:12Z</time>
      </trkpt>
      <trkpt lat="43.99423" lon="-0.17142">
        <ele>128.95</ele>
        <time>2016-02-11T09:30:20Z</time>
      </trkpt>
      <trkpt lat="43.9943" lon="-0.17151">
        <ele>129.92</ele>
        <time>2016-02-11T09:30:30Z</time>
      </trkpt>
      <trkpt lat="43.99437" lon="-0.17166">
        <ele>129.92</ele>
        <time>2016-02-11T09:30:45Z</time>
      </trkpt>
      <trkpt lat="43.99444" lon="-0.17177">
        <ele>130.4</ele>
        <time>2016-02-11T09:30:57Z</time>
      </trkpt>
      <trkpt lat="43.9945" lon="-0.17184">
        <ele>130.88</ele>
        <time>2016-02-11T09:31:05Z</time>
      </trkpt>
      <trkpt lat="43.99453" lon="-0.17188">
        <ele>130.88</ele>
        <time>2016-02-11T09:31:09Z</time>
      </trkpt>
      <trkpt lat="43.99459" lon="-0.17197">
        <ele>131.36</ele>
        <time>2016-02-11T09:31:20Z</time>
      </trkpt>
      <trkpt lat="43.99468" lon="-0.17208">
        <ele>131.84</ele>
        <time>2016-02-11T09:31:33Z</time>
      </trkpt>
      <trkpt lat="43.99477" lon="-0.17221">
        <ele>132.8</ele>
        <time>2016-02-11T09:31:46Z</time>
      </trkpt>
      <trkpt lat="43.99482" lon="-0.1723">
        <ele>132.8</ele>
        <time>2016-02-11T09:31:55Z</time>
      </trkpt>
      <trkpt lat="43.99491" lon="-0.17246">
        <ele>132.8</ele>
        <time>2016-02-11T09:32:09Z</time>
      </trkpt>
      <trkpt lat="43.99492" lon="-0.17249">
        <ele>132.8</ele>
        <time>2016-02-11T09:32:11Z</time>
      </trkpt>
      <trkpt lat="43.99502" lon="-0.17268">
        <ele>132.8</ele>
        <time>2016-02-11T09:32:28Z</time>
      </trkpt>
      <trkpt lat="43.99509" lon="-0.17284">
        <ele>132.32</ele>
        <time>2016-02-11T09:32:41Z</time>
      </trkpt>
      <trkpt lat="43.99522" lon="-0.17287">
        <ele>132.8</ele>
        <time>2016-02-11T09:32:57Z</time>
      </trkpt>
      <trkpt lat="43.99532" lon="-0.17287">
        <ele>132.8</ele>
        <time>2016-02-11T09:33:11Z</time>
      </trkpt>
      <trkpt lat="43.99542" lon="-0.17283">
        <ele>133.28</ele>
        <time>2016-02-11T09:33:24Z</time>
      </trkpt>
      <trkpt lat="43.99548" lon="-0.17281">
        <ele>133.28</ele>
        <time>2016-02-11T09:33:34Z</time>
      </trkpt>
      <trkpt lat="43.9956" lon="-0.17275">
        <ele>133.76</ele>
        <time>2016-02-11T09:33:47Z</time>
      </trkpt>
      <trkpt lat="43.99566" lon="-0.17272">
        <ele>134.24</ele>
        <time>2016-02-11T09:33:54Z</time>
      </trkpt>
      <trkpt lat="43.99581" lon="-0.1727">
        <ele>133.76</ele>
        <time>2016-02-11T09:34:07Z</time>
      </trkpt>
      <trkpt lat="43.996" lon="-0.17265">
        <ele>133.76</ele>
        <time>2016-02-11T09:34:20Z</time>
      </trkpt>
      <trkpt lat="43.99611" lon="-0.17263">
        <ele>133.76</ele>
        <time>2016-02-11T09:34:33Z</time>
      </trkpt>
      <trkpt lat="43.99624" lon="-0.1726">
        <ele>133.76</ele>
        <time>2016-02-11T09:34:46Z</time>
      </trkpt>
      <trkpt lat="43.99641" lon="-0.17258">
        <ele>134.24</ele>
        <time>2016-02-11T09:35:01Z</time>
      </trkpt>
      <trkpt lat="43.99654" lon="-0.17262">
        <ele>135.2</ele>
        <time>2016-02-11T09:35:16Z</time>
      </trkpt>
      <trkpt lat="43.99664" lon="-0.17264">
        <ele>135.2</ele>
        <time>2016-02-11T09:35:27Z</time>
      </trkpt>
      <trkpt lat="43.99667" lon="-0.17263">
        <ele>135.2</ele>
        <time>2016-02-11T09:35:30Z</time>
      </trkpt>
      <trkpt lat="43.99682" lon="-0.17259">
        <ele>135.68</ele>
        <time>2016-02-11T09:35:46Z</time>
      </trkpt>
      <trkpt lat="43.99692" lon="-0.17255">
        <ele>135.2</ele>
        <time>2016-02-11T09:35:57Z</time>
      </trkpt>
      <trkpt lat="43.99702" lon="-0.17253">
        <ele>134.24</ele>
        <time>2016-02-11T09:36:09Z</time>
      </trkpt>
      <trkpt lat="43.99715" lon="-0.17253">
        <ele>134.24</ele>
        <time>2016-02-11T09:36:24Z</time>
      </trkpt>
      <trkpt lat="43.99733" lon="-0.17252">
        <ele>134.72</ele>
        <time>2016-02-11T09:36:37Z</time>
      </trkpt>
      <trkpt lat="43.99752" lon="-0.17258">
        <ele>134.72</ele>
        <time>2016-02-11T09:36:51Z</time>
      </trkpt>
      <trkpt lat="43.99759" lon="-0.17265">
        <ele>135.2</ele>
        <time>2016-02-11T09:37:06Z</time>
      </trkpt>
      <trkpt lat="43.99768" lon="-0.17268">
        <ele>135.2</ele>
        <time>2016-02-11T09:37:18Z</time>
      </trkpt>
      <trkpt lat="43.99769" lon="-0.17269">
        <ele>135.2</ele>
        <time>2016-02-11T09:37:22Z</time>
      </trkpt>
      <trkpt lat="43.99781" lon="-0.17271">
        <ele>135.68</ele>
        <time>2016-02-11T09:37:34Z</time>
      </trkpt>
      <trkpt lat="43.99791" lon="-0.17274">
        <ele>135.68</ele>
        <time>2016-02-11T09:37:47Z</time>
      </trkpt>
      <trkpt lat="43.99817" lon="-0.17276">
        <ele>135.68</ele>
        <time>2016-02-11T09:38:00Z</time>
      </trkpt>
      <trkpt lat="43.99829" lon="-0.17281">
        <ele>136.64</ele>
        <time>2016-02-11T09:38:13Z</time>
      </trkpt>
      <trkpt lat="43.9984" lon="-0.17285">
        <ele>138.09</ele>
        <time>2016-02-11T09:38:25Z</time>
      </trkpt>
      <trkpt lat="43.99853" lon="-0.1729">
        <ele>138.57</ele>
        <time>2016-02-11T09:38:40Z</time>
      </trkpt>
      <trkpt lat="43.9986" lon="-0.17297">
        <ele>140.01</ele>
        <time>2016-02-11T09:38:55Z</time>
      </trkpt>
      <trkpt lat="43.99874" lon="-0.17304">
        <ele>141.45</ele>
        <time>2016-02-11T09:39:10Z</time>
      </trkpt>
      <trkpt lat="43.99892" lon="-0.17309">
        <ele>141.93</ele>
        <time>2016-02-11T09:39:25Z</time>
      </trkpt>
      <trkpt lat="43.99899" lon="-0.17309">
        <ele>141.45</ele>
        <time>2016-02-11T09:39:41Z</time>
      </trkpt>
      <trkpt lat="43.99902" lon="-0.1731">
        <ele>141.93</ele>
        <time>2016-02-11T09:39:55Z</time>
      </trkpt>
      <trkpt lat="43.99902" lon="-0.1731">
        <ele>142.41</ele>
        <time>2016-02-11T09:40:14Z</time>
      </trkpt>
      <trkpt lat="43.99902" lon="-0.1731">
        <ele>141.45</ele>
        <time>2016-02-11T09:40:36Z</time>
      </trkpt>
      <trkpt lat="43.99902" lon="-0.17308">
        <ele>142.41</ele>
        <time>2016-02-11T09:40:58Z</time>
      </trkpt>
      <trkpt lat="43.99903" lon="-0.17308">
        <ele>140.97</ele>
        <time>2016-02-11T09:41:26Z</time>
      </trkpt>
      <trkpt lat="43.99903" lon="-0.1731">
        <ele>140.49</ele>
        <time>2016-02-11T09:41:43Z</time>
      </trkpt>
      <trkpt lat="43.99907" lon="-0.17329">
        <ele>141.45</ele>
        <time>2016-02-11T09:42:00Z</time>
      </trkpt>
      <trkpt lat="43.99907" lon="-0.17351">
        <ele>141.93</ele>
        <time>2016-02-11T09:42:15Z</time>
      </trkpt>
      <trkpt lat="43.99907" lon="-0.17354">
        <ele>141.93</ele>
        <time>2016-02-11T09:42:17Z</time>
      </trkpt>
      <trkpt lat="43.99907" lon="-0.17381">
        <ele>142.89</ele>
        <time>2016-02-11T09:42:33Z</time>
      </trkpt>
      <trkpt lat="43.99908" lon="-0.17394">
        <ele>142.41</ele>
        <time>2016-02-11T09:42:40Z</time>
      </trkpt>
      <trkpt lat="43.99913" lon="-0.17432">
        <ele>141.93</ele>
        <time>2016-02-11T09:43:00Z</time>
      </trkpt>
      <trkpt lat="43.99921" lon="-0.17453">
        <ele>142.41</ele>
        <time>2016-02-11T09:43:15Z</time>
      </trkpt>
      <trkpt lat="43.99927" lon="-0.17475">
        <ele>142.41</ele>
        <time>2016-02-11T09:43:32Z</time>
      </trkpt>
      <trkpt lat="43.99932" lon="-0.17495">
        <ele>141.93</ele>
        <time>2016-02-11T09:43:48Z</time>
      </trkpt>
      <trkpt lat="43.99936" lon="-0.1752">
        <ele>141.45</ele>
        <time>2016-02-11T09:44:06Z</time>
      </trkpt>
      <trkpt lat="43.99939" lon="-0.17535">
        <ele>140.97</ele>
        <time>2016-02-11T09:44:16Z</time>
      </trkpt>
      <trkpt lat="43.99945" lon="-0.17564">
        <ele>140.01</ele>
        <time>2016-02-11T09:44:35Z</time>
      </trkpt>
      <trkpt lat="43.99948" lon="-0.17588">
        <ele>140.97</ele>
        <time>2016-02-11T09:44:51Z</time>
      </trkpt>
      <trkpt lat="43.99948" lon="-0.17614">
        <ele>140.01</ele>
        <time>2016-02-11T09:45:07Z</time>
      </trkpt>
      <trkpt lat="43.99946" lon="-0.17637">
        <ele>140.01</ele>
        <time>2016-02-11T09:45:22Z</time>
      </trkpt>
      <trkpt lat="43.99946" lon="-0.17659">
        <ele>139.53</ele>
        <time>2016-02-11T09:45:37Z</time>
      </trkpt>
      <trkpt lat="43.99945" lon="-0.17685">
        <ele>139.05</ele>
        <time>2016-02-11T09:45:53Z</time>
      </trkpt>
      <trkpt lat="43.99948" lon="-0.17713">
        <ele>138.57</ele>
        <time>2016-02-11T09:46:09Z</time>
      </trkpt>
      <trkpt lat="43.99949" lon="-0.17737">
        <ele>139.53</ele>
        <time>2016-02-11T09:46:24Z</time>
      </trkpt>
      <trkpt lat="43.99951" lon="-0.17764">
        <ele>139.05</ele>
        <time>2016-02-11T09:46:40Z</time>
      </trkpt>
      <trkpt lat="43.99953" lon="-0.17787">
        <ele>139.53</ele>
        <time>2016-02-11T09:46:56Z</time>
      </trkpt>
      <trkpt lat="43.99955" lon="-0.17817">
        <ele>139.05</ele>
        <time>2016-02-11T09:47:13Z</time>
      </trkpt>
      <trkpt lat="43.99956" lon="-0.17843">
        <ele>138.57</ele>
        <time>2016-02-11T09:47:28Z</time>
      </trkpt>
      <trkpt lat="43.99956" lon="-0.17846">
        <ele>138.57</ele>
        <time>2016-02-11T09:47:30Z</time>
      </trkpt>
      <trkpt lat="43.99956" lon="-0.17857">
        <ele>138.57</ele>
        <time>2016-02-11T09:47:38Z</time>
      </trkpt>
      <trkpt lat="43.99957" lon="-0.17888">
        <ele>138.09</ele>
        <time>2016-02-11T09:47:57Z</time>
      </trkpt>
      <trkpt lat="43.99958" lon="-0.17917">
        <ele>138.09</ele>
        <time>2016-02-11T09:48:15Z</time>
      </trkpt>
      <trkpt lat="43.99959" lon="-0.1794">
        <ele>139.05</ele>
        <time>2016-02-11T09:48:30Z</time>
      </trkpt>
      <trkpt lat="43.9996" lon="-0.1796">
        <ele>138.57</ele>
        <time>2016-02-11T09:48:43Z</time>
      </trkpt>
      <trkpt lat="43.99955" lon="-0.17983">
        <ele>137.61</ele>
        <time>2016-02-11T09:48:58Z</time>
      </trkpt>
      <trkpt lat="43.99942" lon="-0.17996">
        <ele>137.61</ele>
        <time>2016-02-11T09:49:13Z</time>
      </trkpt>
      <trkpt lat="43.99926" lon="-0.18005">
        <ele>137.13</ele>
        <time>2016-02-11T09:49:28Z</time>
      </trkpt>
      <trkpt lat="43.99909" lon="-0.18014">
        <ele>136.64</ele>
        <time>2016-02-11T09:49:43Z</time>
      </trkpt>
      <trkpt lat="43.99892" lon="-0.18025">
        <ele>135.68</ele>
        <time>2016-02-11T09:49:58Z</time>
      </trkpt>
      <trkpt lat="43.99875" lon="-0.18035">
        <ele>134.72</ele>
        <time>2016-02-11T09:50:14Z</time>
      </trkpt>
      <trkpt lat="43.99868" lon="-0.18039">
        <ele>134.24</ele>
        <time>2016-02-11T09:50:21Z</time>
      </trkpt>
      <trkpt lat="43.99848" lon="-0.18047">
        <ele>133.76</ele>
        <time>2016-02-11T09:50:39Z</time>
      </trkpt>
      <trkpt lat="43.9983" lon="-0.18052">
        <ele>133.28</ele>
        <time>2016-02-11T09:50:55Z</time>
      </trkpt>
      <trkpt lat="43.99825" lon="-0.18056">
        <ele>133.28</ele>
        <time>2016-02-11T09:51:01Z</time>
      </trkpt>
      <trkpt lat="43.99824" lon="-0.18073">
        <ele>131.84</ele>
        <time>2016-02-11T09:51:13Z</time>
      </trkpt>
      <trkpt lat="43.99827" lon="-0.18095">
        <ele>131.84</ele>
        <time>2016-02-11T09:51:28Z</time>
      </trkpt>
      <trkpt lat="43.99829" lon="-0.18113">
        <ele>131.36</ele>
        <time>2016-02-11T09:51:41Z</time>
      </trkpt>
      <trkpt lat="43.99833" lon="-0.18138">
        <ele>131.36</ele>
        <time>2016-02-11T09:51:57Z</time>
      </trkpt>
      <trkpt lat="43.99835" lon="-0.18155">
        <ele>131.36</ele>
        <time>2016-02-11T09:52:11Z</time>
      </trkpt>
      <trkpt lat="43.99836" lon="-0.18161">
        <ele>130.88</ele>
        <time>2016-02-11T09:52:16Z</time>
      </trkpt>
      <trkpt lat="43.99837" lon="-0.18172">
        <ele>131.36</ele>
        <time>2016-02-11T09:52:31Z</time>
      </trkpt>
      <trkpt lat="43.99838" lon="-0.18178">
        <ele>130.88</ele>
        <time>2016-02-11T09:52:35Z</time>
      </trkpt>
      <trkpt lat="43.9984" lon="-0.18199">
        <ele>130.88</ele>
        <time>2016-02-11T09:52:49Z</time>
      </trkpt>
      <trkpt lat="43.99842" lon="-0.18222">
        <ele>130.88</ele>
        <time>2016-02-11T09:53:05Z</time>
      </trkpt>
      <trkpt lat="43.99845" lon="-0.18247">
        <ele>129.92</ele>
        <time>2016-02-11T09:53:23Z</time>
      </trkpt>
      <trkpt lat="43.99848" lon="-0.18273">
        <ele>131.36</ele>
        <time>2016-02-11T09:53:42Z</time>
      </trkpt>
      <trkpt lat="43.99851" lon="-0.18297">
        <ele>131.36</ele>
        <time>2016-02-11T09:53:57Z</time>
      </trkpt>
      <trkpt lat="43.9985" lon="-0.18319">
        <ele>131.36</ele>
        <time>2016-02-11T09:54:12Z</time>
      </trkpt>
      <trkpt lat="43.99852" lon="-0.18333">
        <ele>131.36</ele>
        <time>2016-02-11T09:54:22Z</time>
      </trkpt>
      <trkpt lat="43.99851" lon="-0.18341">
        <ele>131.36</ele>
        <time>2016-02-11T09:54:27Z</time>
      </trkpt>
      <trkpt lat="43.9985" lon="-0.18349">
        <ele>131.84</ele>
        <time>2016-02-11T09:54:33Z</time>
      </trkpt>
      <trkpt lat="43.99849" lon="-0.18351">
        <ele>132.8</ele>
        <time>2016-02-11T09:54:35Z</time>
      </trkpt>
      <trkpt lat="43.99843" lon="-0.18356">
        <ele>131.84</ele>
        <time>2016-02-11T09:54:46Z</time>
      </trkpt>
      <trkpt lat="43.9983" lon="-0.1836">
        <ele>129.92</ele>
        <time>2016-02-11T09:55:00Z</time>
      </trkpt>
      <trkpt lat="43.99826" lon="-0.1837">
        <ele>130.4</ele>
        <time>2016-02-11T09:55:13Z</time>
      </trkpt>
      <trkpt lat="43.99826" lon="-0.18379">
        <ele>130.4</ele>
        <time>2016-02-11T09:55:20Z</time>
      </trkpt>
      <trkpt lat="43.99829" lon="-0.18403">
        <ele>130.88</ele>
        <time>2016-02-11T09:55:37Z</time>
      </trkpt>
      <trkpt lat="43.9983" lon="-0.18424">
        <ele>130.4</ele>
        <time>2016-02-11T09:55:53Z</time>
      </trkpt>
      <trkpt lat="43.99831" lon="-0.18434">
        <ele>130.88</ele>
        <time>2016-02-11T09:56:00Z</time>
      </trkpt>
      <trkpt lat="43.99835" lon="-0.18454">
        <ele>131.36</ele>
        <time>2016-02-11T09:56:15Z</time>
      </trkpt>
      <trkpt lat="43.99837" lon="-0.18469">
        <ele>131.84</ele>
        <time>2016-02-11T09:56:26Z</time>
      </trkpt>
      <trkpt lat="43.99839" lon="-0.1849">
        <ele>130.88</ele>
        <time>2016-02-11T09:56:41Z</time>
      </trkpt>
      <trkpt lat="43.99841" lon="-0.18504">
        <ele>130.88</ele>
        <time>2016-02-11T09:56:51Z</time>
      </trkpt>
      <trkpt lat="43.99844" lon="-0.18525">
        <ele>130.88</ele>
        <time>2016-02-11T09:57:07Z</time>
      </trkpt>
      <trkpt lat="43.99847" lon="-0.18544">
        <ele>130.88</ele>
        <time>2016-02-11T09:57:23Z</time>
      </trkpt>
      <trkpt lat="43.99844" lon="-0.18558">
        <ele>130.88</ele>
        <time>2016-02-11T09:57:38Z</time>
      </trkpt>
      <trkpt lat="43.99843" lon="-0.1856">
        <ele>130.4</ele>
        <time>2016-02-11T09:57:41Z</time>
      </trkpt>
      <trkpt lat="43.99838" lon="-0.18577">
        <ele>131.36</ele>
        <time>2016-02-11T09:57:57Z</time>
      </trkpt>
      <trkpt lat="43.99838" lon="-0.18576">
        <ele>130.88</ele>
        <time>2016-02-11T09:58:11Z</time>
      </trkpt>
      <trkpt lat="43.99836" lon="-0.1859">
        <ele>131.36</ele>
        <time>2016-02-11T09:58:26Z</time>
      </trkpt>
      <trkpt lat="43.99834" lon="-0.18611">
        <ele>131.36</ele>
        <time>2016-02-11T09:58:42Z</time>
      </trkpt>
      <trkpt lat="43.99835" lon="-0.18617">
        <ele>131.84</ele>
        <time>2016-02-11T09:58:46Z</time>
      </trkpt>
      <trkpt lat="43.99834" lon="-0.18641">
        <ele>130.4</ele>
        <time>2016-02-11T09:59:03Z</time>
      </trkpt>
      <trkpt lat="43.99835" lon="-0.18651">
        <ele>129.43</ele>
        <time>2016-02-11T09:59:18Z</time>
      </trkpt>
      <trkpt lat="43.99842" lon="-0.18666">
        <ele>128.47</ele>
        <time>2016-02-11T09:59:37Z</time>
      </trkpt>
      <trkpt lat="43.99849" lon="-0.18665">
        <ele>127.99</ele>
        <time>2016-02-11T09:59:51Z</time>
      </trkpt>
      <trkpt lat="43.99862" lon="-0.18666">
        <ele>125.11</ele>
        <time>2016-02-11T10:00:06Z</time>
      </trkpt>
      <trkpt lat="43.99869" lon="-0.18667">
        <ele>123.67</ele>
        <time>2016-02-11T10:00:21Z</time>
      </trkpt>
      <trkpt lat="43.99879" lon="-0.18676">
        <ele>122.22</ele>
        <time>2016-02-11T10:00:35Z</time>
      </trkpt>
      <trkpt lat="43.99884" lon="-0.18685">
        <ele>118.86</ele>
        <time>2016-02-11T10:00:47Z</time>
      </trkpt>
      <trkpt lat="43.9989" lon="-0.18696">
        <ele>119.82</ele>
        <time>2016-02-11T10:00:57Z</time>
      </trkpt>
      <trkpt lat="43.99895" lon="-0.18704">
        <ele>117.9</ele>
        <time>2016-02-11T10:01:10Z</time>
      </trkpt>
      <trkpt lat="43.99905" lon="-0.18707">
        <ele>115.98</ele>
        <time>2016-02-11T10:01:22Z</time>
      </trkpt>
      <trkpt lat="43.99912" lon="-0.18716">
        <ele>115.01</ele>
        <time>2016-02-11T10:01:33Z</time>
      </trkpt>
      <trkpt lat="43.99922" lon="-0.18727">
        <ele>113.57</ele>
        <time>2016-02-11T10:01:45Z</time>
      </trkpt>
      <trkpt lat="43.99925" lon="-0.18731">
        <ele>112.13</ele>
        <time>2016-02-11T10:01:50Z</time>
      </trkpt>
      <trkpt lat="43.99929" lon="-0.18738">
        <ele>111.65</ele>
        <time>2016-02-11T10:02:05Z</time>
      </trkpt>
      <trkpt lat="43.99931" lon="-0.18741">
        <ele>110.21</ele>
        <time>2016-02-11T10:02:14Z</time>
      </trkpt>
      <trkpt lat="43.99932" lon="-0.18742">
        <ele>109.25</ele>
        <time>2016-02-11T10:02:16Z</time>
      </trkpt>
      <trkpt lat="43.99937" lon="-0.18751">
        <ele>110.21</ele>
        <time>2016-02-11T10:02:27Z</time>
      </trkpt>
      <trkpt lat="43.99943" lon="-0.18763">
        <ele>108.29</ele>
        <time>2016-02-11T10:02:38Z</time>
      </trkpt>
      <trkpt lat="43.9995" lon="-0.18784">
        <ele>108.29</ele>
        <time>2016-02-11T10:02:51Z</time>
      </trkpt>
      <trkpt lat="43.99955" lon="-0.18792">
        <ele>107.81</ele>
        <time>2016-02-11T10:03:00Z</time>
      </trkpt>
      <trkpt lat="43.99968" lon="-0.18804">
        <ele>108.29</ele>
        <time>2016-02-11T10:03:14Z</time>
      </trkpt>
      <trkpt lat="43.99975" lon="-0.18809">
        <ele>107.32</ele>
        <time>2016-02-11T10:03:22Z</time>
      </trkpt>
      <trkpt lat="43.9999" lon="-0.18818">
        <ele>108.29</ele>
        <time>2016-02-11T10:03:36Z</time>
      </trkpt>
      <trkpt lat="44.00001" lon="-0.18826">
        <ele>107.81</ele>
        <time>2016-02-11T10:03:49Z</time>
      </trkpt>
      <trkpt lat="44.00011" lon="-0.18835">
        <ele>108.29</ele>
        <time>2016-02-11T10:04:02Z</time>
      </trkpt>
      <trkpt lat="44.00018" lon="-0.18836">
        <ele>108.29</ele>
        <time>2016-02-11T10:04:16Z</time>
      </trkpt>
      <trkpt lat="44.00025" lon="-0.18836">
        <ele>108.77</ele>
        <time>2016-02-11T10:04:30Z</time>
      </trkpt>
      <trkpt lat="44.00029" lon="-0.18838">
        <ele>108.77</ele>
        <time>2016-02-11T10:04:49Z</time>
      </trkpt>
      <trkpt lat="44.00027" lon="-0.18842">
        <ele>108.77</ele>
        <time>2016-02-11T10:05:05Z</time>
      </trkpt>
      <trkpt lat="44.00025" lon="-0.18851">
        <ele>109.25</ele>
        <time>2016-02-11T10:05:12Z</time>
      </trkpt>
      <trkpt lat="44.00023" lon="-0.18868">
        <ele>109.25</ele>
        <time>2016-02-11T10:05:25Z</time>
      </trkpt>
      <trkpt lat="44.00018" lon="-0.18877">
        <ele>108.77</ele>
        <time>2016-02-11T10:05:34Z</time>
      </trkpt>
      <trkpt lat="44.00011" lon="-0.1888">
        <ele>108.77</ele>
        <time>2016-02-11T10:05:49Z</time>
      </trkpt>
      <trkpt lat="44.0001" lon="-0.1888">
        <ele>109.25</ele>
        <time>2016-02-11T10:06:18Z</time>
      </trkpt>
      <trkpt lat="44.00012" lon="-0.18878">
        <ele>108.77</ele>
        <time>2016-02-11T10:06:45Z</time>
      </trkpt>
      <trkpt lat="44.00014" lon="-0.18877">
        <ele>109.25</ele>
        <time>2016-02-11T10:06:49Z</time>
      </trkpt>
      <trkpt lat="44.0002" lon="-0.18872">
        <ele>109.73</ele>
        <time>2016-02-11T10:07:00Z</time>
      </trkpt>
      <trkpt lat="44.00023" lon="-0.18865">
        <ele>109.73</ele>
        <time>2016-02-11T10:07:14Z</time>
      </trkpt>
      <trkpt lat="44.00027" lon="-0.18851">
        <ele>109.25</ele>
        <time>2016-02-11T10:07:28Z</time>
      </trkpt>
      <trkpt lat="44.00029" lon="-0.18837">
        <ele>109.25</ele>
        <time>2016-02-11T10:07:46Z</time>
      </trkpt>
      <trkpt lat="44.00031" lon="-0.18838">
        <ele>108.77</ele>
        <time>2016-02-11T10:08:05Z</time>
      </trkpt>
      <trkpt lat="44.0003" lon="-0.18842">
        <ele>109.73</ele>
        <time>2016-02-11T10:08:28Z</time>
      </trkpt>
      <trkpt lat="44.00028" lon="-0.18845">
        <ele>108.77</ele>
        <time>2016-02-11T10:08:49Z</time>
      </trkpt>
      <trkpt lat="44.00029" lon="-0.18843">
        <ele>109.73</ele>
        <time>2016-02-11T10:09:09Z</time>
      </trkpt>
      <trkpt lat="44.00029" lon="-0.18842">
        <ele>109.73</ele>
        <time>2016-02-11T10:09:33Z</time>
      </trkpt>
      <trkpt lat="44.00029" lon="-0.18842">
        <ele>109.25</ele>
        <time>2016-02-11T10:09:59Z</time>
      </trkpt>
      <trkpt lat="44.00029" lon="-0.18842">
        <ele>110.21</ele>
        <time>2016-02-11T10:10:25Z</time>
      </trkpt>
      <trkpt lat="44.00029" lon="-0.1884">
        <ele>109.25</ele>
        <time>2016-02-11T10:10:47Z</time>
      </trkpt>
      <trkpt lat="44.00029" lon="-0.18841">
        <ele>109.73</ele>
        <time>2016-02-11T10:11:14Z</time>
      </trkpt>
      <trkpt lat="44.00029" lon="-0.1884">
        <ele>109.25</ele>
        <time>2016-02-11T10:11:44Z</time>
      </trkpt>
      <trkpt lat="44.00029" lon="-0.1884">
        <ele>109.73</ele>
        <time>2016-02-11T10:12:03Z</time>
      </trkpt>
      <trkpt lat="44.00029" lon="-0.18839">
        <ele>109.73</ele>
        <time>2016-02-11T10:12:23Z</time>
      </trkpt>
      <trkpt lat="44.00028" lon="-0.1884">
        <ele>109.73</ele>
        <time>2016-02-11T10:12:50Z</time>
      </trkpt>
      <trkpt lat="44.00028" lon="-0.1884">
        <ele>109.73</ele>
        <time>2016-02-11T10:13:13Z</time>
      </trkpt>
      <trkpt lat="44.00028" lon="-0.1884">
        <ele>109.73</ele>
        <time>2016-02-11T10:13:45Z</time>
      </trkpt>
      <trkpt lat="44.00029" lon="-0.1884">
        <ele>109.73</ele>
        <time>2016-02-11T10:14:12Z</time>
      </trkpt>
      <trkpt lat="44.00029" lon="-0.18841">
        <ele>109.25</ele>
        <time>2016-02-11T10:14:44Z</time>
      </trkpt>
      <trkpt lat="44.0003" lon="-0.18841">
        <ele>109.25</ele>
        <time>2016-02-11T10:15:09Z</time>
      </trkpt>
      <trkpt lat="44.0003" lon="-0.1884">
        <ele>109.25</ele>
        <time>2016-02-11T10:15:34Z</time>
      </trkpt>
      <trkpt lat="44.00029" lon="-0.1884">
        <ele>109.25</ele>
        <time>2016-02-11T10:15:46Z</time>
      </trkpt>
      <trkpt lat="44.00028" lon="-0.18839">
        <ele>109.73</ele>
        <time>2016-02-11T10:16:10Z</time>
      </trkpt>
      <trkpt lat="44.00029" lon="-0.18839">
        <ele>108.29</ele>
        <time>2016-02-11T10:16:32Z</time>
      </trkpt>
      <trkpt lat="44.00029" lon="-0.18839">
        <ele>109.73</ele>
        <time>2016-02-11T10:16:52Z</time>
      </trkpt>
      <trkpt lat="44.00028" lon="-0.18839">
        <ele>108.77</ele>
        <time>2016-02-11T10:17:14Z</time>
      </trkpt>
      <trkpt lat="44.00029" lon="-0.18839">
        <ele>108.77</ele>
        <time>2016-02-11T10:17:34Z</time>
      </trkpt>
      <trkpt lat="44.00028" lon="-0.18839">
        <ele>108.77</ele>
        <time>2016-02-11T10:17:56Z</time>
      </trkpt>
      <trkpt lat="44.00028" lon="-0.1884">
        <ele>109.25</ele>
        <time>2016-02-11T10:18:14Z</time>
      </trkpt>
      <trkpt lat="44.00028" lon="-0.1884">
        <ele>108.77</ele>
        <time>2016-02-11T10:18:39Z</time>
      </trkpt>
      <trkpt lat="44.00028" lon="-0.18841">
        <ele>108.29</ele>
        <time>2016-02-11T10:19:07Z</time>
      </trkpt>
      <trkpt lat="44.00028" lon="-0.1884">
        <ele>108.29</ele>
        <time>2016-02-11T10:19:33Z</time>
      </trkpt>
      <trkpt lat="44.00028" lon="-0.18841">
        <ele>103.48</ele>
        <time>2016-02-11T10:19:48Z</time>
      </trkpt>
      <trkpt lat="44.00028" lon="-0.18841">
        <ele>113.57</ele>
        <time>2016-02-11T10:19:49Z</time>
      </trkpt>
      <trkpt lat="44.00028" lon="-0.18841">
        <ele>108.77</ele>
        <time>2016-02-11T10:19:50Z</time>
      </trkpt>
      <trkpt lat="44.00028" lon="-0.18842">
        <ele>108.77</ele>
        <time>2016-02-11T10:20:13Z</time>
      </trkpt>
      <trkpt lat="44.00027" lon="-0.18842">
        <ele>108.29</ele>
        <time>2016-02-11T10:20:27Z</time>
      </trkpt>
      <trkpt lat="44.00027" lon="-0.18843">
        <ele>108.77</ele>
        <time>2016-02-11T10:20:50Z</time>
      </trkpt>
      <trkpt lat="44.00025" lon="-0.18848">
        <ele>108.77</ele>
        <time>2016-02-11T10:21:07Z</time>
      </trkpt>
      <trkpt lat="44.00025" lon="-0.18852">
        <ele>109.25</ele>
        <time>2016-02-11T10:21:12Z</time>
      </trkpt>
      <trkpt lat="44.00028" lon="-0.18869">
        <ele>109.25</ele>
        <time>2016-02-11T10:21:25Z</time>
      </trkpt>
      <trkpt lat="44.00034" lon="-0.18883">
        <ele>109.73</ele>
        <time>2016-02-11T10:21:41Z</time>
      </trkpt>
      <trkpt lat="44.00043" lon="-0.18895">
        <ele>112.61</ele>
        <time>2016-02-11T10:21:57Z</time>
      </trkpt>
      <trkpt lat="44.00049" lon="-0.18905">
        <ele>113.09</ele>
        <time>2016-02-11T10:22:13Z</time>
      </trkpt>
      <trkpt lat="44.00057" lon="-0.18914">
        <ele>113.57</ele>
        <time>2016-02-11T10:22:28Z</time>
      </trkpt>
      <trkpt lat="44.00068" lon="-0.18933">
        <ele>115.01</ele>
        <time>2016-02-11T10:22:44Z</time>
      </trkpt>
      <trkpt lat="44.00077" lon="-0.18943">
        <ele>115.98</ele>
        <time>2016-02-11T10:22:58Z</time>
      </trkpt>
      <trkpt lat="44.0009" lon="-0.18954">
        <ele>117.42</ele>
        <time>2016-02-11T10:23:14Z</time>
      </trkpt>
      <trkpt lat="44.001" lon="-0.18969">
        <ele>117.9</ele>
        <time>2016-02-11T10:23:28Z</time>
      </trkpt>
      <trkpt lat="44.00109" lon="-0.18979">
        <ele>116.94</ele>
        <time>2016-02-11T10:23:41Z</time>
      </trkpt>
      <trkpt lat="44.00114" lon="-0.18997">
        <ele>117.42</ele>
        <time>2016-02-11T10:23:54Z</time>
      </trkpt>
      <trkpt lat="44.00115" lon="-0.19003">
        <ele>117.42</ele>
        <time>2016-02-11T10:23:58Z</time>
      </trkpt>
      <trkpt lat="44.0012" lon="-0.19022">
        <ele>117.9</ele>
        <time>2016-02-11T10:24:14Z</time>
      </trkpt>
      <trkpt lat="44.00128" lon="-0.1903">
        <ele>119.34</ele>
        <time>2016-02-11T10:24:25Z</time>
      </trkpt>
      <trkpt lat="44.00136" lon="-0.19033">
        <ele>119.82</ele>
        <time>2016-02-11T10:24:33Z</time>
      </trkpt>
      <trkpt lat="44.00154" lon="-0.19039">
        <ele>121.26</ele>
        <time>2016-02-11T10:24:49Z</time>
      </trkpt>
      <trkpt lat="44.00156" lon="-0.19039">
        <ele>121.26</ele>
        <time>2016-02-11T10:24:52Z</time>
      </trkpt>
      <trkpt lat="44.00159" lon="-0.19041">
        <ele>121.74</ele>
        <time>2016-02-11T10:24:55Z</time>
      </trkpt>
      <trkpt lat="44.00168" lon="-0.19053">
        <ele>122.71</ele>
        <time>2016-02-11T10:25:10Z</time>
      </trkpt>
      <trkpt lat="44.00175" lon="-0.19068">
        <ele>122.71</ele>
        <time>2016-02-11T10:25:24Z</time>
      </trkpt>
      <trkpt lat="44.00184" lon="-0.19077">
        <ele>123.67</ele>
        <time>2016-02-11T10:25:40Z</time>
      </trkpt>
      <trkpt lat="44.0018" lon="-0.19095">
        <ele>123.67</ele>
        <time>2016-02-11T10:25:56Z</time>
      </trkpt>
      <trkpt lat="44.00174" lon="-0.19109">
        <ele>122.71</ele>
        <time>2016-02-11T10:26:11Z</time>
      </trkpt>
      <trkpt lat="44.00173" lon="-0.19113">
        <ele>124.15</ele>
        <time>2016-02-11T10:26:15Z</time>
      </trkpt>
      <trkpt lat="44.00172" lon="-0.19117">
        <ele>123.67</ele>
        <time>2016-02-11T10:26:18Z</time>
      </trkpt>
      <trkpt lat="44.0017" lon="-0.19126">
        <ele>124.15</ele>
        <time>2016-02-11T10:26:25Z</time>
      </trkpt>
      <trkpt lat="44.00164" lon="-0.19145">
        <ele>124.15</ele>
        <time>2016-02-11T10:26:41Z</time>
      </trkpt>
      <trkpt lat="44.0016" lon="-0.19164">
        <ele>122.71</ele>
        <time>2016-02-11T10:26:56Z</time>
      </trkpt>
      <trkpt lat="44.00154" lon="-0.19181">
        <ele>122.71</ele>
        <time>2016-02-11T10:27:06Z</time>
      </trkpt>
      <trkpt lat="44.00149" lon="-0.19189">
        <ele>122.22</ele>
        <time>2016-02-11T10:27:14Z</time>
      </trkpt>
      <trkpt lat="44.00136" lon="-0.19204">
        <ele>122.71</ele>
        <time>2016-02-11T10:27:29Z</time>
      </trkpt>
      <trkpt lat="44.00136" lon="-0.19204">
        <ele>123.19</ele>
        <time>2016-02-11T10:27:30Z</time>
      </trkpt>
      <trkpt lat="44.00122" lon="-0.19209">
        <ele>122.71</ele>
        <time>2016-02-11T10:27:45Z</time>
      </trkpt>
      <trkpt lat="44.00121" lon="-0.19209">
        <ele>122.71</ele>
        <time>2016-02-11T10:27:46Z</time>
      </trkpt>
      <trkpt lat="44.0011" lon="-0.19223">
        <ele>122.71</ele>
        <time>2016-02-11T10:27:59Z</time>
      </trkpt>
      <trkpt lat="44.00107" lon="-0.19239">
        <ele>122.71</ele>
        <time>2016-02-11T10:28:12Z</time>
      </trkpt>
      <trkpt lat="44.00101" lon="-0.19264">
        <ele>123.67</ele>
        <time>2016-02-11T10:28:28Z</time>
      </trkpt>
      <trkpt lat="44.00101" lon="-0.19267">
        <ele>123.67</ele>
        <time>2016-02-11T10:28:30Z</time>
      </trkpt>
      <trkpt lat="44.0009" lon="-0.19288">
        <ele>123.67</ele>
        <time>2016-02-11T10:28:47Z</time>
      </trkpt>
      <trkpt lat="44.00089" lon="-0.1929">
        <ele>123.19</ele>
        <time>2016-02-11T10:28:49Z</time>
      </trkpt>
      <trkpt lat="44.00081" lon="-0.19294">
        <ele>123.67</ele>
        <time>2016-02-11T10:28:59Z</time>
      </trkpt>
      <trkpt lat="44.00072" lon="-0.19301">
        <ele>124.15</ele>
        <time>2016-02-11T10:29:09Z</time>
      </trkpt>
      <trkpt lat="44.0007" lon="-0.19308">
        <ele>123.67</ele>
        <time>2016-02-11T10:29:14Z</time>
      </trkpt>
      <trkpt lat="44.00068" lon="-0.1931">
        <ele>123.67</ele>
        <time>2016-02-11T10:29:17Z</time>
      </trkpt>
      <trkpt lat="44.0006" lon="-0.1933">
        <ele>124.15</ele>
        <time>2016-02-11T10:29:34Z</time>
      </trkpt>
      <trkpt lat="44.00056" lon="-0.19353">
        <ele>122.22</ele>
        <time>2016-02-11T10:29:49Z</time>
      </trkpt>
      <trkpt lat="44.00052" lon="-0.19373">
        <ele>123.67</ele>
        <time>2016-02-11T10:30:03Z</time>
      </trkpt>
      <trkpt lat="44.00049" lon="-0.19387">
        <ele>124.15</ele>
        <time>2016-02-11T10:30:14Z</time>
      </trkpt>
      <trkpt lat="44.00045" lon="-0.1941">
        <ele>124.63</ele>
        <time>2016-02-11T10:30:31Z</time>
      </trkpt>
      <trkpt lat="44.00042" lon="-0.19422">
        <ele>124.63</ele>
        <time>2016-02-11T10:30:41Z</time>
      </trkpt>
      <trkpt lat="44.00039" lon="-0.19438">
        <ele>124.63</ele>
        <time>2016-02-11T10:30:54Z</time>
      </trkpt>
      <trkpt lat="44.00034" lon="-0.19454">
        <ele>125.11</ele>
        <time>2016-02-11T10:31:07Z</time>
      </trkpt>
      <trkpt lat="44.00029" lon="-0.19472">
        <ele>125.11</ele>
        <time>2016-02-11T10:31:22Z</time>
      </trkpt>
      <trkpt lat="44.00027" lon="-0.19478">
        <ele>124.63</ele>
        <time>2016-02-11T10:31:28Z</time>
      </trkpt>
      <trkpt lat="44.00024" lon="-0.19482">
        <ele>124.63</ele>
        <time>2016-02-11T10:31:32Z</time>
      </trkpt>
      <trkpt lat="44.00015" lon="-0.19499">
        <ele>125.59</ele>
        <time>2016-02-11T10:31:48Z</time>
      </trkpt>
      <trkpt lat="44.00007" lon="-0.19516">
        <ele>126.07</ele>
        <time>2016-02-11T10:32:03Z</time>
      </trkpt>
      <trkpt lat="43.99999" lon="-0.19532">
        <ele>125.59</ele>
        <time>2016-02-11T10:32:17Z</time>
      </trkpt>
      <trkpt lat="43.99998" lon="-0.19533">
        <ele>125.59</ele>
        <time>2016-02-11T10:32:19Z</time>
      </trkpt>
      <trkpt lat="43.99987" lon="-0.19551">
        <ele>124.63</ele>
        <time>2016-02-11T10:32:35Z</time>
      </trkpt>
      <trkpt lat="43.99979" lon="-0.19567">
        <ele>124.63</ele>
        <time>2016-02-11T10:32:49Z</time>
      </trkpt>
      <trkpt lat="43.99972" lon="-0.1958">
        <ele>125.11</ele>
        <time>2016-02-11T10:33:02Z</time>
      </trkpt>
      <trkpt lat="43.99969" lon="-0.19594">
        <ele>126.07</ele>
        <time>2016-02-11T10:33:15Z</time>
      </trkpt>
      <trkpt lat="43.99963" lon="-0.19606">
        <ele>126.07</ele>
        <time>2016-02-11T10:33:31Z</time>
      </trkpt>
      <trkpt lat="43.99962" lon="-0.19608">
        <ele>126.07</ele>
        <time>2016-02-11T10:33:33Z</time>
      </trkpt>
      <trkpt lat="43.99952" lon="-0.19617">
        <ele>127.51</ele>
        <time>2016-02-11T10:33:50Z</time>
      </trkpt>
      <trkpt lat="43.99945" lon="-0.19623">
        <ele>126.07</ele>
        <time>2016-02-11T10:34:03Z</time>
      </trkpt>
      <trkpt lat="43.99936" lon="-0.19635">
        <ele>126.07</ele>
        <time>2016-02-11T10:34:21Z</time>
      </trkpt>
      <trkpt lat="43.99927" lon="-0.19645">
        <ele>125.59</ele>
        <time>2016-02-11T10:34:36Z</time>
      </trkpt>
      <trkpt lat="43.99918" lon="-0.19652">
        <ele>124.15</ele>
        <time>2016-02-11T10:34:47Z</time>
      </trkpt>
      <trkpt lat="43.99917" lon="-0.19654">
        <ele>123.19</ele>
        <time>2016-02-11T10:34:49Z</time>
      </trkpt>
      <trkpt lat="43.99915" lon="-0.19656">
        <ele>126.07</ele>
        <time>2016-02-11T10:34:51Z</time>
      </trkpt>
      <trkpt lat="43.99907" lon="-0.19663">
        <ele>125.59</ele>
        <time>2016-02-11T10:35:05Z</time>
      </trkpt>
      <trkpt lat="43.99898" lon="-0.19672">
        <ele>126.55</ele>
        <time>2016-02-11T10:35:22Z</time>
      </trkpt>
      <trkpt lat="43.99897" lon="-0.19674">
        <ele>126.55</ele>
        <time>2016-02-11T10:35:24Z</time>
      </trkpt>
      <trkpt lat="43.99894" lon="-0.19681">
        <ele>125.59</ele>
        <time>2016-02-11T10:35:29Z</time>
      </trkpt>
      <trkpt lat="43.99888" lon="-0.1969">
        <ele>127.51</ele>
        <time>2016-02-11T10:35:38Z</time>
      </trkpt>
      <trkpt lat="43.99886" lon="-0.19695">
        <ele>126.55</ele>
        <time>2016-02-11T10:35:43Z</time>
      </trkpt>
      <trkpt lat="43.99882" lon="-0.19704">
        <ele>127.03</ele>
        <time>2016-02-11T10:35:50Z</time>
      </trkpt>
      <trkpt lat="43.99867" lon="-0.19722">
        <ele>126.55</ele>
        <time>2016-02-11T10:36:06Z</time>
      </trkpt>
      <trkpt lat="43.99851" lon="-0.19741">
        <ele>125.59</ele>
        <time>2016-02-11T10:36:23Z</time>
      </trkpt>
      <trkpt lat="43.99837" lon="-0.19759">
        <ele>124.63</ele>
        <time>2016-02-11T10:36:37Z</time>
      </trkpt>
      <trkpt lat="43.99828" lon="-0.1977">
        <ele>125.11</ele>
        <time>2016-02-11T10:36:46Z</time>
      </trkpt>
      <trkpt lat="43.99827" lon="-0.19772">
        <ele>125.59</ele>
        <time>2016-02-11T10:36:48Z</time>
      </trkpt>
      <trkpt lat="43.99811" lon="-0.19793">
        <ele>125.11</ele>
        <time>2016-02-11T10:37:05Z</time>
      </trkpt>
      <trkpt lat="43.99798" lon="-0.19807">
        <ele>124.63</ele>
        <time>2016-02-11T10:37:19Z</time>
      </trkpt>
      <trkpt lat="43.99783" lon="-0.1982">
        <ele>123.19</ele>
        <time>2016-02-11T10:37:35Z</time>
      </trkpt>
      <trkpt lat="43.99774" lon="-0.19831">
        <ele>124.15</ele>
        <time>2016-02-11T10:37:49Z</time>
      </trkpt>
      <trkpt lat="43.99772" lon="-0.19834">
        <ele>125.11</ele>
        <time>2016-02-11T10:38:04Z</time>
      </trkpt>
      <trkpt lat="43.99772" lon="-0.19834">
        <ele>124.15</ele>
        <time>2016-02-11T10:38:10Z</time>
      </trkpt>
      <trkpt lat="43.9977" lon="-0.19835">
        <ele>125.11</ele>
        <time>2016-02-11T10:38:16Z</time>
      </trkpt>
      <trkpt lat="43.99768" lon="-0.19838">
        <ele>125.11</ele>
        <time>2016-02-11T10:38:19Z</time>
      </trkpt>
      <trkpt lat="43.99764" lon="-0.19843">
        <ele>125.59</ele>
        <time>2016-02-11T10:38:24Z</time>
      </trkpt>
      <trkpt lat="43.99758" lon="-0.19853">
        <ele>125.59</ele>
        <time>2016-02-11T10:38:37Z</time>
      </trkpt>
      <trkpt lat="43.99756" lon="-0.19855">
        <ele>127.03</ele>
        <time>2016-02-11T10:38:40Z</time>
      </trkpt>
      <trkpt lat="43.99753" lon="-0.19856">
        <ele>125.59</ele>
        <time>2016-02-11T10:38:42Z</time>
      </trkpt>
      <trkpt lat="43.9974" lon="-0.19873">
        <ele>126.07</ele>
        <time>2016-02-11T10:38:56Z</time>
      </trkpt>
      <trkpt lat="43.99735" lon="-0.19879">
        <ele>125.11</ele>
        <time>2016-02-11T10:39:01Z</time>
      </trkpt>
      <trkpt lat="43.99733" lon="-0.19882">
        <ele>125.59</ele>
        <time>2016-02-11T10:39:04Z</time>
      </trkpt>
      <trkpt lat="43.99729" lon="-0.19887">
        <ele>125.59</ele>
        <time>2016-02-11T10:39:08Z</time>
      </trkpt>
      <trkpt lat="43.99717" lon="-0.19902">
        <ele>126.55</ele>
        <time>2016-02-11T10:39:20Z</time>
      </trkpt>
      <trkpt lat="43.99714" lon="-0.19905">
        <ele>125.11</ele>
        <time>2016-02-11T10:39:23Z</time>
      </trkpt>
      <trkpt lat="43.997" lon="-0.19923">
        <ele>125.11</ele>
        <time>2016-02-11T10:39:37Z</time>
      </trkpt>
      <trkpt lat="43.99699" lon="-0.19924">
        <ele>124.63</ele>
        <time>2016-02-11T10:39:38Z</time>
      </trkpt>
      <trkpt lat="43.99692" lon="-0.19929">
        <ele>125.11</ele>
        <time>2016-02-11T10:39:44Z</time>
      </trkpt>
      <trkpt lat="43.9969" lon="-0.19932">
        <ele>124.63</ele>
        <time>2016-02-11T10:39:46Z</time>
      </trkpt>
      <trkpt lat="43.99681" lon="-0.19946">
        <ele>124.63</ele>
        <time>2016-02-11T10:39:59Z</time>
      </trkpt>
      <trkpt lat="43.99677" lon="-0.19959">
        <ele>124.15</ele>
        <time>2016-02-11T10:40:13Z</time>
      </trkpt>
      <trkpt lat="43.99673" lon="-0.19968">
        <ele>125.59</ele>
        <time>2016-02-11T10:40:20Z</time>
      </trkpt>
      <trkpt lat="43.99663" lon="-0.19982">
        <ele>125.11</ele>
        <time>2016-02-11T10:40:35Z</time>
      </trkpt>
      <trkpt lat="43.99662" lon="-0.19985">
        <ele>124.63</ele>
        <time>2016-02-11T10:40:39Z</time>
      </trkpt>
      <trkpt lat="43.99653" lon="-0.19998">
        <ele>124.15</ele>
        <time>2016-02-11T10:40:51Z</time>
      </trkpt>
      <trkpt lat="43.99652" lon="-0.20001">
        <ele>123.67</ele>
        <time>2016-02-11T10:40:53Z</time>
      </trkpt>
      <trkpt lat="43.9965" lon="-0.20004">
        <ele>123.19</ele>
        <time>2016-02-11T10:40:57Z</time>
      </trkpt>
      <trkpt lat="43.9964" lon="-0.20019">
        <ele>125.11</ele>
        <time>2016-02-11T10:41:11Z</time>
      </trkpt>
      <trkpt lat="43.9964" lon="-0.2002">
        <ele>125.11</ele>
        <time>2016-02-11T10:41:12Z</time>
      </trkpt>
      <trkpt lat="43.99636" lon="-0.20026">
        <ele>123.19</ele>
        <time>2016-02-11T10:41:17Z</time>
      </trkpt>
      <trkpt lat="43.99625" lon="-0.20045">
        <ele>125.11</ele>
        <time>2016-02-11T10:41:33Z</time>
      </trkpt>
      <trkpt lat="43.99622" lon="-0.20048">
        <ele>122.22</ele>
        <time>2016-02-11T10:41:36Z</time>
      </trkpt>
      <trkpt lat="43.99609" lon="-0.20061">
        <ele>121.74</ele>
        <time>2016-02-11T10:41:53Z</time>
      </trkpt>
      <trkpt lat="43.99603" lon="-0.20063">
        <ele>121.74</ele>
        <time>2016-02-11T10:41:59Z</time>
      </trkpt>
      <trkpt lat="43.99595" lon="-0.20074">
        <ele>120.78</ele>
        <time>2016-02-11T10:42:11Z</time>
      </trkpt>
      <trkpt lat="43.99589" lon="-0.2008">
        <ele>120.78</ele>
        <time>2016-02-11T10:42:17Z</time>
      </trkpt>
      <trkpt lat="43.99579" lon="-0.20094">
        <ele>120.3</ele>
        <time>2016-02-11T10:42:30Z</time>
      </trkpt>
      <trkpt lat="43.9957" lon="-0.20106">
        <ele>118.38</ele>
        <time>2016-02-11T10:42:44Z</time>
      </trkpt>
      <trkpt lat="43.99564" lon="-0.20109">
        <ele>117.9</ele>
        <time>2016-02-11T10:42:56Z</time>
      </trkpt>
      <trkpt lat="43.99563" lon="-0.2011">
        <ele>117.9</ele>
        <time>2016-02-11T10:42:58Z</time>
      </trkpt>
      <trkpt lat="43.99553" lon="-0.20122">
        <ele>115.98</ele>
        <time>2016-02-11T10:43:14Z</time>
      </trkpt>
      <trkpt lat="43.99547" lon="-0.20132">
        <ele>115.98</ele>
        <time>2016-02-11T10:43:29Z</time>
      </trkpt>
      <trkpt lat="43.99539" lon="-0.20141">
        <ele>114.05</ele>
        <time>2016-02-11T10:43:42Z</time>
      </trkpt>
      <trkpt lat="43.9953" lon="-0.20155">
        <ele>113.57</ele>
        <time>2016-02-11T10:43:56Z</time>
      </trkpt>
      <trkpt lat="43.99521" lon="-0.20166">
        <ele>113.57</ele>
        <time>2016-02-11T10:44:08Z</time>
      </trkpt>
      <trkpt lat="43.99515" lon="-0.20177">
        <ele>111.17</ele>
        <time>2016-02-11T10:44:19Z</time>
      </trkpt>
      <trkpt lat="43.99505" lon="-0.20191">
        <ele>109.73</ele>
        <time>2016-02-11T10:44:33Z</time>
      </trkpt>
      <trkpt lat="43.99493" lon="-0.20206">
        <ele>108.77</ele>
        <time>2016-02-11T10:44:49Z</time>
      </trkpt>
      <trkpt lat="43.99483" lon="-0.20221">
        <ele>107.32</ele>
        <time>2016-02-11T10:45:03Z</time>
      </trkpt>
      <trkpt lat="43.99482" lon="-0.20222">
        <ele>106.84</ele>
        <time>2016-02-11T10:45:05Z</time>
      </trkpt>
      <trkpt lat="43.99475" lon="-0.20236">
        <ele>105.4</ele>
        <time>2016-02-11T10:45:20Z</time>
      </trkpt>
      <trkpt lat="43.99468" lon="-0.20259">
        <ele>104.92</ele>
        <time>2016-02-11T10:45:36Z</time>
      </trkpt>
      <trkpt lat="43.99464" lon="-0.20269">
        <ele>103.96</ele>
        <time>2016-02-11T10:45:43Z</time>
      </trkpt>
      <trkpt lat="43.99464" lon="-0.20287">
        <ele>103</ele>
        <time>2016-02-11T10:45:57Z</time>
      </trkpt>
      <trkpt lat="43.99464" lon="-0.20289">
        <ele>103.48</ele>
        <time>2016-02-11T10:45:58Z</time>
      </trkpt>
      <trkpt lat="43.99463" lon="-0.20294">
        <ele>103</ele>
        <time>2016-02-11T10:46:01Z</time>
      </trkpt>
      <trkpt lat="43.99462" lon="-0.20306">
        <ele>102.04</ele>
        <time>2016-02-11T10:46:08Z</time>
      </trkpt>
      <trkpt lat="43.99462" lon="-0.20309">
        <ele>102.52</ele>
        <time>2016-02-11T10:46:10Z</time>
      </trkpt>
      <trkpt lat="43.9946" lon="-0.20334">
        <ele>101.56</ele>
        <time>2016-02-11T10:46:27Z</time>
      </trkpt>
      <trkpt lat="43.99458" lon="-0.20352">
        <ele>101.08</ele>
        <time>2016-02-11T10:46:40Z</time>
      </trkpt>
      <trkpt lat="43.99457" lon="-0.20358">
        <ele>101.56</ele>
        <time>2016-02-11T10:46:44Z</time>
      </trkpt>
      <trkpt lat="43.99453" lon="-0.20374">
        <ele>101.08</ele>
        <time>2016-02-11T10:46:57Z</time>
      </trkpt>
      <trkpt lat="43.9945" lon="-0.20385">
        <ele>101.08</ele>
        <time>2016-02-11T10:47:05Z</time>
      </trkpt>
      <trkpt lat="43.9945" lon="-0.20387">
        <ele>100.6</ele>
        <time>2016-02-11T10:47:07Z</time>
      </trkpt>
      <trkpt lat="43.99446" lon="-0.20405">
        <ele>101.08</ele>
        <time>2016-02-11T10:47:20Z</time>
      </trkpt>
      <trkpt lat="43.99445" lon="-0.20415">
        <ele>100.6</ele>
        <time>2016-02-11T10:47:26Z</time>
      </trkpt>
      <trkpt lat="43.99443" lon="-0.20419">
        <ele>99.63</ele>
        <time>2016-02-11T10:47:29Z</time>
      </trkpt>
      <trkpt lat="43.99442" lon="-0.20424">
        <ele>99.63</ele>
        <time>2016-02-11T10:47:32Z</time>
      </trkpt>
      <trkpt lat="43.9944" lon="-0.20432">
        <ele>100.6</ele>
        <time>2016-02-11T10:47:37Z</time>
      </trkpt>
      <trkpt lat="43.99438" lon="-0.20448">
        <ele>99.63</ele>
        <time>2016-02-11T10:47:47Z</time>
      </trkpt>
      <trkpt lat="43.99439" lon="-0.20461">
        <ele>98.19</ele>
        <time>2016-02-11T10:47:55Z</time>
      </trkpt>
      <trkpt lat="43.99439" lon="-0.20467">
        <ele>98.67</ele>
        <time>2016-02-11T10:47:58Z</time>
      </trkpt>
      <trkpt lat="43.9944" lon="-0.20487">
        <ele>96.75</ele>
        <time>2016-02-11T10:48:13Z</time>
      </trkpt>
      <trkpt lat="43.99437" lon="-0.20489">
        <ele>96.27</ele>
        <time>2016-02-11T10:48:28Z</time>
      </trkpt>
      <trkpt lat="43.99433" lon="-0.20485">
        <ele>96.27</ele>
        <time>2016-02-11T10:48:45Z</time>
      </trkpt>
      <trkpt lat="43.99422" lon="-0.20472">
        <ele>96.27</ele>
        <time>2016-02-11T10:49:00Z</time>
      </trkpt>
      <trkpt lat="43.99415" lon="-0.2046">
        <ele>96.27</ele>
        <time>2016-02-11T10:49:14Z</time>
      </trkpt>
      <trkpt lat="43.99409" lon="-0.20453">
        <ele>95.79</ele>
        <time>2016-02-11T10:49:22Z</time>
      </trkpt>
      <trkpt lat="43.99407" lon="-0.20449">
        <ele>95.79</ele>
        <time>2016-02-11T10:49:25Z</time>
      </trkpt>
      <trkpt lat="43.99401" lon="-0.20439">
        <ele>94.83</ele>
        <time>2016-02-11T10:49:36Z</time>
      </trkpt>
      <trkpt lat="43.99398" lon="-0.20433">
        <ele>94.83</ele>
        <time>2016-02-11T10:49:42Z</time>
      </trkpt>
      <trkpt lat="43.99391" lon="-0.20419">
        <ele>94.83</ele>
        <time>2016-02-11T10:49:52Z</time>
      </trkpt>
      <trkpt lat="43.99386" lon="-0.20411">
        <ele>93.87</ele>
        <time>2016-02-11T10:50:02Z</time>
      </trkpt>
      <trkpt lat="43.99378" lon="-0.20396">
        <ele>93.87</ele>
        <time>2016-02-11T10:50:15Z</time>
      </trkpt>
      <trkpt lat="43.99371" lon="-0.2038">
        <ele>93.87</ele>
        <time>2016-02-11T10:50:28Z</time>
      </trkpt>
      <trkpt lat="43.9936" lon="-0.2036">
        <ele>94.35</ele>
        <time>2016-02-11T10:50:44Z</time>
      </trkpt>
      <trkpt lat="43.99349" lon="-0.20346">
        <ele>94.35</ele>
        <time>2016-02-11T10:50:59Z</time>
      </trkpt>
      <trkpt lat="43.9934" lon="-0.20332">
        <ele>93.39</ele>
        <time>2016-02-11T10:51:12Z</time>
      </trkpt>
      <trkpt lat="43.9933" lon="-0.20318">
        <ele>92.9</ele>
        <time>2016-02-11T10:51:25Z</time>
      </trkpt>
      <trkpt lat="43.99321" lon="-0.20306">
        <ele>92.9</ele>
        <time>2016-02-11T10:51:39Z</time>
      </trkpt>
      <trkpt lat="43.99313" lon="-0.203">
        <ele>95.79</ele>
        <time>2016-02-11T10:51:48Z</time>
      </trkpt>
      <trkpt lat="43.99299" lon="-0.20286">
        <ele>95.79</ele>
        <time>2016-02-11T10:52:01Z</time>
      </trkpt>
      <trkpt lat="43.99286" lon="-0.20276">
        <ele>95.31</ele>
        <time>2016-02-11T10:52:14Z</time>
      </trkpt>
      <trkpt lat="43.99284" lon="-0.20274">
        <ele>95.79</ele>
        <time>2016-02-11T10:52:16Z</time>
      </trkpt>
      <trkpt lat="43.99281" lon="-0.20273">
        <ele>95.31</ele>
        <time>2016-02-11T10:52:20Z</time>
      </trkpt>
      <trkpt lat="43.99274" lon="-0.20267">
        <ele>94.83</ele>
        <time>2016-02-11T10:52:26Z</time>
      </trkpt>
      <trkpt lat="43.99268" lon="-0.20262">
        <ele>94.83</ele>
        <time>2016-02-11T10:52:31Z</time>
      </trkpt>
      <trkpt lat="43.99261" lon="-0.20257">
        <ele>93.87</ele>
        <time>2016-02-11T10:52:38Z</time>
      </trkpt>
      <trkpt lat="43.99255" lon="-0.20254">
        <ele>95.31</ele>
        <time>2016-02-11T10:52:45Z</time>
      </trkpt>
      <trkpt lat="43.99253" lon="-0.20253">
        <ele>95.31</ele>
        <time>2016-02-11T10:52:48Z</time>
      </trkpt>
      <trkpt lat="43.99238" lon="-0.20241">
        <ele>92.42</ele>
        <time>2016-02-11T10:53:01Z</time>
      </trkpt>
      <trkpt lat="43.99232" lon="-0.20239">
        <ele>92.42</ele>
        <time>2016-02-11T10:53:07Z</time>
      </trkpt>
      <trkpt lat="43.99225" lon="-0.20233">
        <ele>90.5</ele>
        <time>2016-02-11T10:53:15Z</time>
      </trkpt>
      <trkpt lat="43.99209" lon="-0.20229">
        <ele>90.02</ele>
        <time>2016-02-11T10:53:28Z</time>
      </trkpt>
      <trkpt lat="43.99208" lon="-0.2023">
        <ele>89.54</ele>
        <time>2016-02-11T10:53:29Z</time>
      </trkpt>
      <trkpt lat="43.99191" lon="-0.20232">
        <ele>89.06</ele>
        <time>2016-02-11T10:53:40Z</time>
      </trkpt>
      <trkpt lat="43.9918" lon="-0.20233">
        <ele>89.06</ele>
        <time>2016-02-11T10:53:49Z</time>
      </trkpt>
      <trkpt lat="43.99161" lon="-0.20235">
        <ele>89.06</ele>
        <time>2016-02-11T10:54:03Z</time>
      </trkpt>
      <trkpt lat="43.99157" lon="-0.20236">
        <ele>89.54</ele>
        <time>2016-02-11T10:54:07Z</time>
      </trkpt>
      <trkpt lat="43.99139" lon="-0.20233">
        <ele>91.46</ele>
        <time>2016-02-11T10:54:24Z</time>
      </trkpt>
      <trkpt lat="43.9913" lon="-0.20233">
        <ele>92.42</ele>
        <time>2016-02-11T10:54:31Z</time>
      </trkpt>
      <trkpt lat="43.99118" lon="-0.20235">
        <ele>94.35</ele>
        <time>2016-02-11T10:54:45Z</time>
      </trkpt>
      <trkpt lat="43.99106" lon="-0.20229">
        <ele>96.27</ele>
        <time>2016-02-11T10:55:00Z</time>
      </trkpt>
      <trkpt lat="43.99093" lon="-0.2023">
        <ele>98.19</ele>
        <time>2016-02-11T10:55:11Z</time>
      </trkpt>
      <trkpt lat="43.99081" lon="-0.20238">
        <ele>100.11</ele>
        <time>2016-02-11T10:55:25Z</time>
      </trkpt>
      <trkpt lat="43.99064" lon="-0.20254">
        <ele>102.52</ele>
        <time>2016-02-11T10:55:40Z</time>
      </trkpt>
      <trkpt lat="43.99054" lon="-0.2026">
        <ele>103.48</ele>
        <time>2016-02-11T10:55:49Z</time>
      </trkpt>
      <trkpt lat="43.99041" lon="-0.20265">
        <ele>105.4</ele>
        <time>2016-02-11T10:56:03Z</time>
      </trkpt>
      <trkpt lat="43.99029" lon="-0.20268">
        <ele>107.81</ele>
        <time>2016-02-11T10:56:16Z</time>
      </trkpt>
      <trkpt lat="43.99019" lon="-0.20268">
        <ele>109.25</ele>
        <time>2016-02-11T10:56:29Z</time>
      </trkpt>
      <trkpt lat="43.99006" lon="-0.20264">
        <ele>111.17</ele>
        <time>2016-02-11T10:56:44Z</time>
      </trkpt>
      <trkpt lat="43.98994" lon="-0.2026">
        <ele>113.57</ele>
        <time>2016-02-11T10:56:57Z</time>
      </trkpt>
      <trkpt lat="43.98978" lon="-0.20252">
        <ele>115.98</ele>
        <time>2016-02-11T10:57:12Z</time>
      </trkpt>
      <trkpt lat="43.98962" lon="-0.20248">
        <ele>117.9</ele>
        <time>2016-02-11T10:57:28Z</time>
      </trkpt>
      <trkpt lat="43.98948" lon="-0.20247">
        <ele>119.82</ele>
        <time>2016-02-11T10:57:42Z</time>
      </trkpt>
      <trkpt lat="43.98934" lon="-0.20245">
        <ele>122.22</ele>
        <time>2016-02-11T10:57:58Z</time>
      </trkpt>
      <trkpt lat="43.9893" lon="-0.20246">
        <ele>122.71</ele>
        <time>2016-02-11T10:58:14Z</time>
      </trkpt>
      <trkpt lat="43.98929" lon="-0.20247">
        <ele>123.19</ele>
        <time>2016-02-11T10:58:35Z</time>
      </trkpt>
      <trkpt lat="43.98927" lon="-0.20252">
        <ele>122.71</ele>
        <time>2016-02-11T10:58:49Z</time>
      </trkpt>
      <trkpt lat="43.98928" lon="-0.20251">
        <ele>123.19</ele>
        <time>2016-02-11T10:59:16Z</time>
      </trkpt>
      <trkpt lat="43.98929" lon="-0.20251">
        <ele>123.19</ele>
        <time>2016-02-11T10:59:42Z</time>
      </trkpt>
      <trkpt lat="43.9893" lon="-0.20251">
        <ele>122.71</ele>
        <time>2016-02-11T10:59:58Z</time>
      </trkpt>
      <trkpt lat="43.9893" lon="-0.2025">
        <ele>122.71</ele>
        <time>2016-02-11T11:00:23Z</time>
      </trkpt>
      <trkpt lat="43.9893" lon="-0.2025">
        <ele>123.19</ele>
        <time>2016-02-11T11:00:42Z</time>
      </trkpt>
      <trkpt lat="43.98931" lon="-0.20249">
        <ele>123.67</ele>
        <time>2016-02-11T11:01:05Z</time>
      </trkpt>
      <trkpt lat="43.9893" lon="-0.2025">
        <ele>123.67</ele>
        <time>2016-02-11T11:01:28Z</time>
      </trkpt>
      <trkpt lat="43.9893" lon="-0.20238">
        <ele>122.71</ele>
        <time>2016-02-11T11:01:47Z</time>
      </trkpt>
      <trkpt lat="43.98932" lon="-0.20221">
        <ele>122.71</ele>
        <time>2016-02-11T11:02:00Z</time>
      </trkpt>
      <trkpt lat="43.98933" lon="-0.20214">
        <ele>122.71</ele>
        <time>2016-02-11T11:02:04Z</time>
      </trkpt>
      <trkpt lat="43.98932" lon="-0.2019">
        <ele>122.71</ele>
        <time>2016-02-11T11:02:22Z</time>
      </trkpt>
      <trkpt lat="43.98935" lon="-0.20174">
        <ele>122.22</ele>
        <time>2016-02-11T11:02:40Z</time>
      </trkpt>
      <trkpt lat="43.98938" lon="-0.20153">
        <ele>122.71</ele>
        <time>2016-02-11T11:02:56Z</time>
      </trkpt>
      <trkpt lat="43.98941" lon="-0.20126">
        <ele>121.74</ele>
        <time>2016-02-11T11:03:11Z</time>
      </trkpt>
      <trkpt lat="43.98944" lon="-0.20104">
        <ele>122.71</ele>
        <time>2016-02-11T11:03:24Z</time>
      </trkpt>
      <trkpt lat="43.98944" lon="-0.20094">
        <ele>122.22</ele>
        <time>2016-02-11T11:03:30Z</time>
      </trkpt>
      <trkpt lat="43.98946" lon="-0.20078">
        <ele>122.22</ele>
        <time>2016-02-11T11:03:40Z</time>
      </trkpt>
      <trkpt lat="43.98947" lon="-0.20069">
        <ele>122.71</ele>
        <time>2016-02-11T11:03:46Z</time>
      </trkpt>
      <trkpt lat="43.98951" lon="-0.2005">
        <ele>123.19</ele>
        <time>2016-02-11T11:04:01Z</time>
      </trkpt>
      <trkpt lat="43.98953" lon="-0.20032">
        <ele>123.19</ele>
        <time>2016-02-11T11:04:16Z</time>
      </trkpt>
      <trkpt lat="43.98955" lon="-0.20017">
        <ele>123.67</ele>
        <time>2016-02-11T11:04:33Z</time>
      </trkpt>
      <trkpt lat="43.98954" lon="-0.20003">
        <ele>124.15</ele>
        <time>2016-02-11T11:04:49Z</time>
      </trkpt>
      <trkpt lat="43.98952" lon="-0.19985">
        <ele>124.63</ele>
        <time>2016-02-11T11:05:03Z</time>
      </trkpt>
      <trkpt lat="43.98951" lon="-0.19979">
        <ele>124.63</ele>
        <time>2016-02-11T11:05:07Z</time>
      </trkpt>
      <trkpt lat="43.98947" lon="-0.19957">
        <ele>124.15</ele>
        <time>2016-02-11T11:05:23Z</time>
      </trkpt>
      <trkpt lat="43.98944" lon="-0.19935">
        <ele>124.15</ele>
        <time>2016-02-11T11:05:38Z</time>
      </trkpt>
      <trkpt lat="43.98943" lon="-0.19925">
        <ele>124.15</ele>
        <time>2016-02-11T11:05:46Z</time>
      </trkpt>
      <trkpt lat="43.98942" lon="-0.19906">
        <ele>124.15</ele>
        <time>2016-02-11T11:05:59Z</time>
      </trkpt>
      <trkpt lat="43.98939" lon="-0.19888">
        <ele>123.67</ele>
        <time>2016-02-11T11:06:14Z</time>
      </trkpt>
      <trkpt lat="43.98939" lon="-0.19881">
        <ele>124.15</ele>
        <time>2016-02-11T11:06:20Z</time>
      </trkpt>
      <trkpt lat="43.98934" lon="-0.19867">
        <ele>123.67</ele>
        <time>2016-02-11T11:06:31Z</time>
      </trkpt>
      <trkpt lat="43.9893" lon="-0.19851">
        <ele>123.67</ele>
        <time>2016-02-11T11:06:43Z</time>
      </trkpt>
      <trkpt lat="43.98927" lon="-0.1984">
        <ele>123.67</ele>
        <time>2016-02-11T11:06:51Z</time>
      </trkpt>
      <trkpt lat="43.98917" lon="-0.19831">
        <ele>124.15</ele>
        <time>2016-02-11T11:07:05Z</time>
      </trkpt>
      <trkpt lat="43.98909" lon="-0.19824">
        <ele>123.67</ele>
        <time>2016-02-11T11:07:18Z</time>
      </trkpt>
      <trkpt lat="43.98903" lon="-0.19818">
        <ele>124.15</ele>
        <time>2016-02-11T11:07:27Z</time>
      </trkpt>
      <trkpt lat="43.98892" lon="-0.19798">
        <ele>124.63</ele>
        <time>2016-02-11T11:07:44Z</time>
      </trkpt>
      <trkpt lat="43.98888" lon="-0.19791">
        <ele>124.15</ele>
        <time>2016-02-11T11:07:50Z</time>
      </trkpt>
      <trkpt lat="43.98878" lon="-0.19773">
        <ele>124.15</ele>
        <time>2016-02-11T11:08:05Z</time>
      </trkpt>
      <trkpt lat="43.98872" lon="-0.19764">
        <ele>124.15</ele>
        <time>2016-02-11T11:08:14Z</time>
      </trkpt>
      <trkpt lat="43.9887" lon="-0.19761">
        <ele>124.15</ele>
        <time>2016-02-11T11:08:16Z</time>
      </trkpt>
      <trkpt lat="43.98862" lon="-0.19749">
        <ele>125.11</ele>
        <time>2016-02-11T11:08:31Z</time>
      </trkpt>
      <trkpt lat="43.98853" lon="-0.19733">
        <ele>125.11</ele>
        <time>2016-02-11T11:08:45Z</time>
      </trkpt>
      <trkpt lat="43.98844" lon="-0.19714">
        <ele>124.63</ele>
        <time>2016-02-11T11:09:00Z</time>
      </trkpt>
      <trkpt lat="43.98832" lon="-0.19696">
        <ele>125.59</ele>
        <time>2016-02-11T11:09:15Z</time>
      </trkpt>
      <trkpt lat="43.9883" lon="-0.1969">
        <ele>125.59</ele>
        <time>2016-02-11T11:09:22Z</time>
      </trkpt>
      <trkpt lat="43.98829" lon="-0.19687">
        <ele>125.59</ele>
        <time>2016-02-11T11:09:24Z</time>
      </trkpt>
      <trkpt lat="43.98824" lon="-0.19681">
        <ele>125.59</ele>
        <time>2016-02-11T11:09:31Z</time>
      </trkpt>
      <trkpt lat="43.98814" lon="-0.19666">
        <ele>126.07</ele>
        <time>2016-02-11T11:09:45Z</time>
      </trkpt>
      <trkpt lat="43.98812" lon="-0.19662">
        <ele>126.07</ele>
        <time>2016-02-11T11:09:47Z</time>
      </trkpt>
      <trkpt lat="43.98803" lon="-0.19641">
        <ele>127.03</ele>
        <time>2016-02-11T11:10:03Z</time>
      </trkpt>
      <trkpt lat="43.98794" lon="-0.19619">
        <ele>126.07</ele>
        <time>2016-02-11T11:10:19Z</time>
      </trkpt>
      <trkpt lat="43.98788" lon="-0.19595">
        <ele>126.55</ele>
        <time>2016-02-11T11:10:35Z</time>
      </trkpt>
      <trkpt lat="43.9878" lon="-0.19569">
        <ele>126.55</ele>
        <time>2016-02-11T11:10:53Z</time>
      </trkpt>
      <trkpt lat="43.98774" lon="-0.19548">
        <ele>126.55</ele>
        <time>2016-02-11T11:11:07Z</time>
      </trkpt>
      <trkpt lat="43.98771" lon="-0.19533">
        <ele>126.07</ele>
        <time>2016-02-11T11:11:21Z</time>
      </trkpt>
      <trkpt lat="43.98769" lon="-0.19515">
        <ele>126.55</ele>
        <time>2016-02-11T11:11:34Z</time>
      </trkpt>
      <trkpt lat="43.98765" lon="-0.19501">
        <ele>126.55</ele>
        <time>2016-02-11T11:11:48Z</time>
      </trkpt>
      <trkpt lat="43.98764" lon="-0.19499">
        <ele>126.07</ele>
        <time>2016-02-11T11:12:03Z</time>
      </trkpt>
      <trkpt lat="43.98764" lon="-0.19498">
        <ele>126.55</ele>
        <time>2016-02-11T11:12:23Z</time>
      </trkpt>
      <trkpt lat="43.98762" lon="-0.19502">
        <ele>125.11</ele>
        <time>2016-02-11T11:12:43Z</time>
      </trkpt>
      <trkpt lat="43.98761" lon="-0.19507">
        <ele>124.15</ele>
        <time>2016-02-11T11:12:49Z</time>
      </trkpt>
      <trkpt lat="43.98753" lon="-0.19523">
        <ele>124.15</ele>
        <time>2016-02-11T11:13:03Z</time>
      </trkpt>
      <trkpt lat="43.98745" lon="-0.19539">
        <ele>123.67</ele>
        <time>2016-02-11T11:13:16Z</time>
      </trkpt>
      <trkpt lat="43.98739" lon="-0.19552">
        <ele>122.22</ele>
        <time>2016-02-11T11:13:26Z</time>
      </trkpt>
      <trkpt lat="43.98731" lon="-0.19571">
        <ele>122.22</ele>
        <time>2016-02-11T11:13:41Z</time>
      </trkpt>
      <trkpt lat="43.98725" lon="-0.19591">
        <ele>122.22</ele>
        <time>2016-02-11T11:13:54Z</time>
      </trkpt>
      <trkpt lat="43.98721" lon="-0.19616">
        <ele>120.3</ele>
        <time>2016-02-11T11:14:09Z</time>
      </trkpt>
      <trkpt lat="43.9872" lon="-0.19625">
        <ele>120.78</ele>
        <time>2016-02-11T11:14:15Z</time>
      </trkpt>
      <trkpt lat="43.98722" lon="-0.19651">
        <ele>119.34</ele>
        <time>2016-02-11T11:14:31Z</time>
      </trkpt>
      <trkpt lat="43.98724" lon="-0.19675">
        <ele>117.9</ele>
        <time>2016-02-11T11:14:46Z</time>
      </trkpt>
      <trkpt lat="43.98725" lon="-0.1968">
        <ele>118.38</ele>
        <time>2016-02-11T11:14:49Z</time>
      </trkpt>
      <trkpt lat="43.98725" lon="-0.19703">
        <ele>116.46</ele>
        <time>2016-02-11T11:14:59Z</time>
      </trkpt>
      <trkpt lat="43.98726" lon="-0.19724">
        <ele>116.46</ele>
        <time>2016-02-11T11:15:12Z</time>
      </trkpt>
      <trkpt lat="43.98726" lon="-0.1975">
        <ele>114.53</ele>
        <time>2016-02-11T11:15:26Z</time>
      </trkpt>
      <trkpt lat="43.98727" lon="-0.1976">
        <ele>116.46</ele>
        <time>2016-02-11T11:15:34Z</time>
      </trkpt>
      <trkpt lat="43.98727" lon="-0.19782">
        <ele>114.05</ele>
        <time>2016-02-11T11:15:46Z</time>
      </trkpt>
      <trkpt lat="43.98727" lon="-0.19785">
        <ele>113.57</ele>
        <time>2016-02-11T11:15:48Z</time>
      </trkpt>
      <trkpt lat="43.98728" lon="-0.19796">
        <ele>113.57</ele>
        <time>2016-02-11T11:15:54Z</time>
      </trkpt>
      <trkpt lat="43.9873" lon="-0.19823">
        <ele>113.09</ele>
        <time>2016-02-11T11:16:11Z</time>
      </trkpt>
      <trkpt lat="43.98729" lon="-0.19845">
        <ele>112.61</ele>
        <time>2016-02-11T11:16:24Z</time>
      </trkpt>
      <trkpt lat="43.98729" lon="-0.19855">
        <ele>111.65</ele>
        <time>2016-02-11T11:16:31Z</time>
      </trkpt>
      <trkpt lat="43.98729" lon="-0.19858">
        <ele>111.65</ele>
        <time>2016-02-11T11:16:33Z</time>
      </trkpt>
      <trkpt lat="43.98729" lon="-0.19865">
        <ele>111.17</ele>
        <time>2016-02-11T11:16:38Z</time>
      </trkpt>
      <trkpt lat="43.98729" lon="-0.19882">
        <ele>110.69</ele>
        <time>2016-02-11T11:16:48Z</time>
      </trkpt>
      <trkpt lat="43.9873" lon="-0.19907">
        <ele>110.69</ele>
        <time>2016-02-11T11:17:02Z</time>
      </trkpt>
      <trkpt lat="43.9873" lon="-0.19931">
        <ele>108.29</ele>
        <time>2016-02-11T11:17:14Z</time>
      </trkpt>
      <trkpt lat="43.98731" lon="-0.1996">
        <ele>107.32</ele>
        <time>2016-02-11T11:17:30Z</time>
      </trkpt>
      <trkpt lat="43.98731" lon="-0.19965">
        <ele>108.77</ele>
        <time>2016-02-11T11:17:33Z</time>
      </trkpt>
      <trkpt lat="43.98731" lon="-0.19969">
        <ele>107.81</ele>
        <time>2016-02-11T11:17:35Z</time>
      </trkpt>
      <trkpt lat="43.98731" lon="-0.19993">
        <ele>108.29</ele>
        <time>2016-02-11T11:17:49Z</time>
      </trkpt>
      <trkpt lat="43.98731" lon="-0.20022">
        <ele>107.32</ele>
        <time>2016-02-11T11:18:05Z</time>
      </trkpt>
      <trkpt lat="43.9873" lon="-0.2005">
        <ele>106.84</ele>
        <time>2016-02-11T11:18:21Z</time>
      </trkpt>
      <trkpt lat="43.9873" lon="-0.20069">
        <ele>105.88</ele>
        <time>2016-02-11T11:18:32Z</time>
      </trkpt>
      <trkpt lat="43.98731" lon="-0.20095">
        <ele>106.36</ele>
        <time>2016-02-11T11:18:49Z</time>
      </trkpt>
      <trkpt lat="43.98731" lon="-0.20116">
        <ele>105.88</ele>
        <time>2016-02-11T11:19:04Z</time>
      </trkpt>
      <trkpt lat="43.98729" lon="-0.20126">
        <ele>105.88</ele>
        <time>2016-02-11T11:19:11Z</time>
      </trkpt>
      <trkpt lat="43.98724" lon="-0.20138">
        <ele>105.4</ele>
        <time>2016-02-11T11:19:27Z</time>
      </trkpt>
      <trkpt lat="43.98723" lon="-0.20138">
        <ele>104.92</ele>
        <time>2016-02-11T11:19:45Z</time>
      </trkpt>
      <trkpt lat="43.98723" lon="-0.20139">
        <ele>105.4</ele>
        <time>2016-02-11T11:20:11Z</time>
      </trkpt>
      <trkpt lat="43.98721" lon="-0.20137">
        <ele>104.44</ele>
        <time>2016-02-11T11:20:18Z</time>
      </trkpt>
      <trkpt lat="43.98706" lon="-0.20122">
        <ele>103</ele>
        <time>2016-02-11T11:20:33Z</time>
      </trkpt>
      <trkpt lat="43.98692" lon="-0.20108">
        <ele>100.6</ele>
        <time>2016-02-11T11:20:47Z</time>
      </trkpt>
      <trkpt lat="43.98679" lon="-0.20094">
        <ele>100.11</ele>
        <time>2016-02-11T11:21:02Z</time>
      </trkpt>
      <trkpt lat="43.98666" lon="-0.20081">
        <ele>100.6</ele>
        <time>2016-02-11T11:21:17Z</time>
      </trkpt>
      <trkpt lat="43.98655" lon="-0.20066">
        <ele>99.15</ele>
        <time>2016-02-11T11:21:27Z</time>
      </trkpt>
      <trkpt lat="43.98641" lon="-0.20056">
        <ele>100.11</ele>
        <time>2016-02-11T11:21:42Z</time>
      </trkpt>
      <trkpt lat="43.98632" lon="-0.20045">
        <ele>100.6</ele>
        <time>2016-02-11T11:21:57Z</time>
      </trkpt>
      <trkpt lat="43.98623" lon="-0.20027">
        <ele>101.56</ele>
        <time>2016-02-11T11:22:10Z</time>
      </trkpt>
      <trkpt lat="43.98618" lon="-0.20017">
        <ele>102.04</ele>
        <time>2016-02-11T11:22:20Z</time>
      </trkpt>
      <trkpt lat="43.98606" lon="-0.19993">
        <ele>102.04</ele>
        <time>2016-02-11T11:22:32Z</time>
      </trkpt>
      <trkpt lat="43.98606" lon="-0.19992">
        <ele>102.04</ele>
        <time>2016-02-11T11:22:33Z</time>
      </trkpt>
      <trkpt lat="43.986" lon="-0.1998">
        <ele>103.96</ele>
        <time>2016-02-11T11:22:48Z</time>
      </trkpt>
      <trkpt lat="43.9859" lon="-0.19961">
        <ele>106.36</ele>
        <time>2016-02-11T11:23:04Z</time>
      </trkpt>
      <trkpt lat="43.98583" lon="-0.19947">
        <ele>107.81</ele>
        <time>2016-02-11T11:23:15Z</time>
      </trkpt>
      <trkpt lat="43.98574" lon="-0.19934">
        <ele>110.21</ele>
        <time>2016-02-11T11:23:30Z</time>
      </trkpt>
      <trkpt lat="43.98561" lon="-0.19925">
        <ele>111.17</ele>
        <time>2016-02-11T11:23:44Z</time>
      </trkpt>
      <trkpt lat="43.98545" lon="-0.19923">
        <ele>112.13</ele>
        <time>2016-02-11T11:23:56Z</time>
      </trkpt>
      <trkpt lat="43.98533" lon="-0.19934">
        <ele>112.61</ele>
        <time>2016-02-11T11:24:13Z</time>
      </trkpt>
      <trkpt lat="43.98521" lon="-0.19938">
        <ele>113.09</ele>
        <time>2016-02-11T11:24:28Z</time>
      </trkpt>
      <trkpt lat="43.98515" lon="-0.19936">
        <ele>112.13</ele>
        <time>2016-02-11T11:24:45Z</time>
      </trkpt>
      <trkpt lat="43.98499" lon="-0.19935">
        <ele>112.61</ele>
        <time>2016-02-11T11:25:02Z</time>
      </trkpt>
      <trkpt lat="43.985" lon="-0.19937">
        <ele>112.13</ele>
        <time>2016-02-11T11:25:20Z</time>
      </trkpt>
      <trkpt lat="43.98498" lon="-0.19938">
        <ele>112.13</ele>
        <time>2016-02-11T11:25:44Z</time>
      </trkpt>
      <trkpt lat="43.98497" lon="-0.19939">
        <ele>112.61</ele>
        <time>2016-02-11T11:26:03Z</time>
      </trkpt>
      <trkpt lat="43.98489" lon="-0.19936">
        <ele>112.13</ele>
        <time>2016-02-11T11:26:20Z</time>
      </trkpt>
      <trkpt lat="43.98483" lon="-0.19933">
        <ele>113.09</ele>
        <time>2016-02-11T11:26:26Z</time>
      </trkpt>
      <trkpt lat="43.9848" lon="-0.19936">
        <ele>113.09</ele>
        <time>2016-02-11T11:26:43Z</time>
      </trkpt>
      <trkpt lat="43.98478" lon="-0.19936">
        <ele>112.13</ele>
        <time>2016-02-11T11:27:12Z</time>
      </trkpt>
      <trkpt lat="43.98475" lon="-0.19936">
        <ele>112.13</ele>
        <time>2016-02-11T11:27:31Z</time>
      </trkpt>
      <trkpt lat="43.98474" lon="-0.19936">
        <ele>113.09</ele>
        <time>2016-02-11T11:27:33Z</time>
      </trkpt>
      <trkpt lat="43.98469" lon="-0.19931">
        <ele>113.09</ele>
        <time>2016-02-11T11:27:46Z</time>
      </trkpt>
      <trkpt lat="43.98464" lon="-0.19923">
        <ele>113.09</ele>
        <time>2016-02-11T11:27:58Z</time>
      </trkpt>
      <trkpt lat="43.98458" lon="-0.19914">
        <ele>112.61</ele>
        <time>2016-02-11T11:28:13Z</time>
      </trkpt>
      <trkpt lat="43.98453" lon="-0.19907">
        <ele>113.57</ele>
        <time>2016-02-11T11:28:27Z</time>
      </trkpt>
      <trkpt lat="43.98451" lon="-0.19905">
        <ele>113.09</ele>
        <time>2016-02-11T11:28:44Z</time>
      </trkpt>
      <trkpt lat="43.98451" lon="-0.19898">
        <ele>113.09</ele>
        <time>2016-02-11T11:29:04Z</time>
      </trkpt>
      <trkpt lat="43.98445" lon="-0.19882">
        <ele>113.09</ele>
        <time>2016-02-11T11:29:20Z</time>
      </trkpt>
      <trkpt lat="43.98441" lon="-0.19878">
        <ele>113.57</ele>
        <time>2016-02-11T11:29:38Z</time>
      </trkpt>
      <trkpt lat="43.98438" lon="-0.19872">
        <ele>113.57</ele>
        <time>2016-02-11T11:29:52Z</time>
      </trkpt>
      <trkpt lat="43.98427" lon="-0.19852">
        <ele>113.57</ele>
        <time>2016-02-11T11:30:04Z</time>
      </trkpt>
      <trkpt lat="43.98419" lon="-0.19843">
        <ele>114.05</ele>
        <time>2016-02-11T11:30:18Z</time>
      </trkpt>
      <trkpt lat="43.98416" lon="-0.19837">
        <ele>114.53</ele>
        <time>2016-02-11T11:30:30Z</time>
      </trkpt>
      <trkpt lat="43.98406" lon="-0.19821">
        <ele>115.01</ele>
        <time>2016-02-11T11:30:42Z</time>
      </trkpt>
      <trkpt lat="43.98404" lon="-0.19816">
        <ele>115.01</ele>
        <time>2016-02-11T11:30:45Z</time>
      </trkpt>
      <trkpt lat="43.98399" lon="-0.19803">
        <ele>115.01</ele>
        <time>2016-02-11T11:30:51Z</time>
      </trkpt>
      <trkpt lat="43.98391" lon="-0.19784">
        <ele>115.01</ele>
        <time>2016-02-11T11:31:05Z</time>
      </trkpt>
      <trkpt lat="43.98383" lon="-0.19764">
        <ele>115.01</ele>
        <time>2016-02-11T11:31:18Z</time>
      </trkpt>
      <trkpt lat="43.98381" lon="-0.19759">
        <ele>115.5</ele>
        <time>2016-02-11T11:31:22Z</time>
      </trkpt>
      <trkpt lat="43.98374" lon="-0.19736">
        <ele>115.98</ele>
        <time>2016-02-11T11:31:37Z</time>
      </trkpt>
      <trkpt lat="43.9837" lon="-0.19723">
        <ele>115.98</ele>
        <time>2016-02-11T11:31:45Z</time>
      </trkpt>
      <trkpt lat="43.98366" lon="-0.19706">
        <ele>115.98</ele>
        <time>2016-02-11T11:31:57Z</time>
      </trkpt>
      <trkpt lat="43.98366" lon="-0.19702">
        <ele>115.98</ele>
        <time>2016-02-11T11:31:59Z</time>
      </trkpt>
      <trkpt lat="43.98359" lon="-0.19682">
        <ele>115.98</ele>
        <time>2016-02-11T11:32:14Z</time>
      </trkpt>
      <trkpt lat="43.98353" lon="-0.19663">
        <ele>115.98</ele>
        <time>2016-02-11T11:32:29Z</time>
      </trkpt>
      <trkpt lat="43.98351" lon="-0.1966">
        <ele>115.98</ele>
        <time>2016-02-11T11:32:32Z</time>
      </trkpt>
      <trkpt lat="43.98345" lon="-0.19643">
        <ele>116.46</ele>
        <time>2016-02-11T11:32:44Z</time>
      </trkpt>
      <trkpt lat="43.98339" lon="-0.19622">
        <ele>115.98</ele>
        <time>2016-02-11T11:32:58Z</time>
      </trkpt>
      <trkpt lat="43.98332" lon="-0.196">
        <ele>115.98</ele>
        <time>2016-02-11T11:33:13Z</time>
      </trkpt>
      <trkpt lat="43.98327" lon="-0.19577">
        <ele>115.5</ele>
        <time>2016-02-11T11:33:29Z</time>
      </trkpt>
      <trkpt lat="43.98322" lon="-0.19553">
        <ele>115.01</ele>
        <time>2016-02-11T11:33:44Z</time>
      </trkpt>
      <trkpt lat="43.98318" lon="-0.19539">
        <ele>114.53</ele>
        <time>2016-02-11T11:33:55Z</time>
      </trkpt>
      <trkpt lat="43.98315" lon="-0.19521">
        <ele>114.05</ele>
        <time>2016-02-11T11:34:07Z</time>
      </trkpt>
      <trkpt lat="43.98309" lon="-0.19501">
        <ele>113.57</ele>
        <time>2016-02-11T11:34:22Z</time>
      </trkpt>
      <trkpt lat="43.98308" lon="-0.19493">
        <ele>113.09</ele>
        <time>2016-02-11T11:34:27Z</time>
      </trkpt>
      <trkpt lat="43.98305" lon="-0.19486">
        <ele>112.61</ele>
        <time>2016-02-11T11:34:44Z</time>
      </trkpt>
      <trkpt lat="43.98308" lon="-0.19487">
        <ele>110.69</ele>
        <time>2016-02-11T11:35:00Z</time>
      </trkpt>
      <trkpt lat="43.98297" lon="-0.19457">
        <ele>109.25</ele>
        <time>2016-02-11T11:35:15Z</time>
      </trkpt>
      <trkpt lat="43.98291" lon="-0.19428">
        <ele>107.32</ele>
        <time>2016-02-11T11:35:31Z</time>
      </trkpt>
      <trkpt lat="43.98288" lon="-0.19417">
        <ele>104.92</ele>
        <time>2016-02-11T11:35:45Z</time>
      </trkpt>
      <trkpt lat="43.98278" lon="-0.19391">
        <ele>103.48</ele>
        <time>2016-02-11T11:36:02Z</time>
      </trkpt>
      <trkpt lat="43.98272" lon="-0.19375">
        <ele>101.56</ele>
        <time>2016-02-11T11:36:17Z</time>
      </trkpt>
      <trkpt lat="43.98261" lon="-0.1935">
        <ele>100.11</ele>
        <time>2016-02-11T11:36:31Z</time>
      </trkpt>
      <trkpt lat="43.98253" lon="-0.19333">
        <ele>98.67</ele>
        <time>2016-02-11T11:36:47Z</time>
      </trkpt>
      <trkpt lat="43.98246" lon="-0.19323">
        <ele>97.23</ele>
        <time>2016-02-11T11:37:02Z</time>
      </trkpt>
      <trkpt lat="43.98228" lon="-0.19293">
        <ele>96.27</ele>
        <time>2016-02-11T11:37:14Z</time>
      </trkpt>
      <trkpt lat="43.98222" lon="-0.19283">
        <ele>94.83</ele>
        <time>2016-02-11T11:37:29Z</time>
      </trkpt>
      <trkpt lat="43.98221" lon="-0.19284">
        <ele>94.35</ele>
        <time>2016-02-11T11:37:37Z</time>
      </trkpt>
      <trkpt lat="43.98218" lon="-0.19281">
        <ele>93.39</ele>
        <time>2016-02-11T11:37:41Z</time>
      </trkpt>
      <trkpt lat="43.98191" lon="-0.19241">
        <ele>91.46</ele>
        <time>2016-02-11T11:37:55Z</time>
      </trkpt>
      <trkpt lat="43.9818" lon="-0.19232">
        <ele>90.5</ele>
        <time>2016-02-11T11:38:08Z</time>
      </trkpt>
      <trkpt lat="43.98171" lon="-0.19225">
        <ele>89.54</ele>
        <time>2016-02-11T11:38:19Z</time>
      </trkpt>
      <trkpt lat="43.98168" lon="-0.19223">
        <ele>89.06</ele>
        <time>2016-02-11T11:38:22Z</time>
      </trkpt>
      <trkpt lat="43.98159" lon="-0.19218">
        <ele>88.1</ele>
        <time>2016-02-11T11:38:28Z</time>
      </trkpt>
      <trkpt lat="43.98146" lon="-0.19208">
        <ele>86.18</ele>
        <time>2016-02-11T11:38:40Z</time>
      </trkpt>
      <trkpt lat="43.98142" lon="-0.19205">
        <ele>85.69</ele>
        <time>2016-02-11T11:38:45Z</time>
      </trkpt>
      <trkpt lat="43.98132" lon="-0.19196">
        <ele>85.21</ele>
        <time>2016-02-11T11:38:55Z</time>
      </trkpt>
      <trkpt lat="43.98125" lon="-0.1919">
        <ele>84.25</ele>
        <time>2016-02-11T11:39:10Z</time>
      </trkpt>
      <trkpt lat="43.98124" lon="-0.19191">
        <ele>84.25</ele>
        <time>2016-02-11T11:39:12Z</time>
      </trkpt>
      <trkpt lat="43.98107" lon="-0.19167">
        <ele>82.81</ele>
        <time>2016-02-11T11:39:27Z</time>
      </trkpt>
      <trkpt lat="43.98089" lon="-0.19147">
        <ele>81.85</ele>
        <time>2016-02-11T11:39:40Z</time>
      </trkpt>
      <trkpt lat="43.98077" lon="-0.19138">
        <ele>82.81</ele>
        <time>2016-02-11T11:39:54Z</time>
      </trkpt>
      <trkpt lat="43.98059" lon="-0.1913">
        <ele>83.29</ele>
        <time>2016-02-11T11:40:09Z</time>
      </trkpt>
      <trkpt lat="43.98043" lon="-0.1912">
        <ele>83.77</ele>
        <time>2016-02-11T11:40:25Z</time>
      </trkpt>
      <trkpt lat="43.98035" lon="-0.1911">
        <ele>83.77</ele>
        <time>2016-02-11T11:40:39Z</time>
      </trkpt>
      <trkpt lat="43.98029" lon="-0.191">
        <ele>84.25</ele>
        <time>2016-02-11T11:40:54Z</time>
      </trkpt>
      <trkpt lat="43.98019" lon="-0.19085">
        <ele>84.73</ele>
        <time>2016-02-11T11:41:09Z</time>
      </trkpt>
      <trkpt lat="43.98008" lon="-0.19069">
        <ele>85.21</ele>
        <time>2016-02-11T11:41:25Z</time>
      </trkpt>
      <trkpt lat="43.98006" lon="-0.19062">
        <ele>85.69</ele>
        <time>2016-02-11T11:41:39Z</time>
      </trkpt>
      <trkpt lat="43.98008" lon="-0.19063">
        <ele>86.66</ele>
        <time>2016-02-11T11:41:53Z</time>
      </trkpt>
      <trkpt lat="43.98009" lon="-0.19063">
        <ele>87.14</ele>
        <time>2016-02-11T11:42:08Z</time>
      </trkpt>
      <trkpt lat="43.98009" lon="-0.19059">
        <ele>85.69</ele>
        <time>2016-02-11T11:42:19Z</time>
      </trkpt>
      <trkpt lat="43.97995" lon="-0.19027">
        <ele>85.69</ele>
        <time>2016-02-11T11:42:30Z</time>
      </trkpt>
      <trkpt lat="43.97987" lon="-0.19004">
        <ele>85.21</ele>
        <time>2016-02-11T11:42:41Z</time>
      </trkpt>
      <trkpt lat="43.97978" lon="-0.18977">
        <ele>85.21</ele>
        <time>2016-02-11T11:42:55Z</time>
      </trkpt>
      <trkpt lat="43.97969" lon="-0.18949">
        <ele>85.21</ele>
        <time>2016-02-11T11:43:09Z</time>
      </trkpt>
      <trkpt lat="43.97963" lon="-0.1893">
        <ele>85.69</ele>
        <time>2016-02-11T11:43:24Z</time>
      </trkpt>
      <trkpt lat="43.97955" lon="-0.18914">
        <ele>85.69</ele>
        <time>2016-02-11T11:43:37Z</time>
      </trkpt>
      <trkpt lat="43.97955" lon="-0.1891">
        <ele>86.18</ele>
        <time>2016-02-11T11:43:47Z</time>
      </trkpt>
      <trkpt lat="43.97952" lon="-0.18899">
        <ele>85.69</ele>
        <time>2016-02-11T11:43:58Z</time>
      </trkpt>
      <trkpt lat="43.9795" lon="-0.18892">
        <ele>86.18</ele>
        <time>2016-02-11T11:44:06Z</time>
      </trkpt>
      <trkpt lat="43.97929" lon="-0.18844">
        <ele>84.25</ele>
        <time>2016-02-11T11:44:22Z</time>
      </trkpt>
      <trkpt lat="43.9792" lon="-0.18831">
        <ele>84.25</ele>
        <time>2016-02-11T11:44:36Z</time>
      </trkpt>
      <trkpt lat="43.97909" lon="-0.18816">
        <ele>84.73</ele>
        <time>2016-02-11T11:44:50Z</time>
      </trkpt>
      <trkpt lat="43.97902" lon="-0.18802">
        <ele>86.18</ele>
        <time>2016-02-11T11:45:02Z</time>
      </trkpt>
      <trkpt lat="43.97898" lon="-0.18792">
        <ele>86.18</ele>
        <time>2016-02-11T11:45:09Z</time>
      </trkpt>
      <trkpt lat="43.97892" lon="-0.18779">
        <ele>87.14</ele>
        <time>2016-02-11T11:45:22Z</time>
      </trkpt>
      <trkpt lat="43.97879" lon="-0.18757">
        <ele>86.66</ele>
        <time>2016-02-11T11:45:38Z</time>
      </trkpt>
      <trkpt lat="43.97877" lon="-0.18749">
        <ele>86.66</ele>
        <time>2016-02-11T11:45:45Z</time>
      </trkpt>
      <trkpt lat="43.97873" lon="-0.1874">
        <ele>86.66</ele>
        <time>2016-02-11T11:45:51Z</time>
      </trkpt>
      <trkpt lat="43.97866" lon="-0.18717">
        <ele>86.18</ele>
        <time>2016-02-11T11:46:07Z</time>
      </trkpt>
      <trkpt lat="43.97866" lon="-0.18715">
        <ele>86.18</ele>
        <time>2016-02-11T11:46:08Z</time>
      </trkpt>
      <trkpt lat="43.97865" lon="-0.18708">
        <ele>85.69</ele>
        <time>2016-02-11T11:46:12Z</time>
      </trkpt>
      <trkpt lat="43.97864" lon="-0.18695">
        <ele>86.18</ele>
        <time>2016-02-11T11:46:22Z</time>
      </trkpt>
      <trkpt lat="43.97862" lon="-0.18676">
        <ele>86.66</ele>
        <time>2016-02-11T11:46:35Z</time>
      </trkpt>
      <trkpt lat="43.97862" lon="-0.18673">
        <ele>86.66</ele>
        <time>2016-02-11T11:46:37Z</time>
      </trkpt>
      <trkpt lat="43.97862" lon="-0.18653">
        <ele>86.18</ele>
        <time>2016-02-11T11:46:52Z</time>
      </trkpt>
      <trkpt lat="43.97862" lon="-0.18643">
        <ele>86.18</ele>
        <time>2016-02-11T11:47:05Z</time>
      </trkpt>
      <trkpt lat="43.97861" lon="-0.18642">
        <ele>86.66</ele>
        <time>2016-02-11T11:47:24Z</time>
      </trkpt>
      <trkpt lat="43.97862" lon="-0.18642">
        <ele>86.18</ele>
        <time>2016-02-11T11:47:38Z</time>
      </trkpt>
      <trkpt lat="43.97862" lon="-0.18641">
        <ele>86.66</ele>
        <time>2016-02-11T11:47:59Z</time>
      </trkpt>
      <trkpt lat="43.97862" lon="-0.18638">
        <ele>86.18</ele>
        <time>2016-02-11T11:48:17Z</time>
      </trkpt>
      <trkpt lat="43.9786" lon="-0.18636">
        <ele>86.18</ele>
        <time>2016-02-11T11:48:33Z</time>
      </trkpt>
      <trkpt lat="43.97856" lon="-0.1863">
        <ele>85.69</ele>
        <time>2016-02-11T11:48:50Z</time>
      </trkpt>
      <trkpt lat="43.97847" lon="-0.18617">
        <ele>84.25</ele>
        <time>2016-02-11T11:49:03Z</time>
      </trkpt>
      <trkpt lat="43.97836" lon="-0.18603">
        <ele>83.29</ele>
        <time>2016-02-11T11:49:13Z</time>
      </trkpt>
      <trkpt lat="43.97831" lon="-0.18599">
        <ele>82.81</ele>
        <time>2016-02-11T11:49:18Z</time>
      </trkpt>
      <trkpt lat="43.97817" lon="-0.18594">
        <ele>81.37</ele>
        <time>2016-02-11T11:49:32Z</time>
      </trkpt>
      <trkpt lat="43.97796" lon="-0.186">
        <ele>80.89</ele>
        <time>2016-02-11T11:49:50Z</time>
      </trkpt>
      <trkpt lat="43.97782" lon="-0.18606">
        <ele>80.89</ele>
        <time>2016-02-11T11:50:03Z</time>
      </trkpt>
      <trkpt lat="43.97761" lon="-0.18614">
        <ele>80.41</ele>
        <time>2016-02-11T11:50:20Z</time>
      </trkpt>
      <trkpt lat="43.97745" lon="-0.18622">
        <ele>80.41</ele>
        <time>2016-02-11T11:50:35Z</time>
      </trkpt>
      <trkpt lat="43.9774" lon="-0.18625">
        <ele>80.89</ele>
        <time>2016-02-11T11:50:40Z</time>
      </trkpt>
      <trkpt lat="43.9772" lon="-0.18632">
        <ele>80.89</ele>
        <time>2016-02-11T11:50:58Z</time>
      </trkpt>
      <trkpt lat="43.97703" lon="-0.1864">
        <ele>79.93</ele>
        <time>2016-02-11T11:51:14Z</time>
      </trkpt>
      <trkpt lat="43.97686" lon="-0.18647">
        <ele>79.45</ele>
        <time>2016-02-11T11:51:29Z</time>
      </trkpt>
      <trkpt lat="43.97667" lon="-0.18655">
        <ele>78.97</ele>
        <time>2016-02-11T11:51:45Z</time>
      </trkpt>
      <trkpt lat="43.97648" lon="-0.18663">
        <ele>78.48</ele>
        <time>2016-02-11T11:52:01Z</time>
      </trkpt>
      <trkpt lat="43.97628" lon="-0.1867">
        <ele>78.48</ele>
        <time>2016-02-11T11:52:17Z</time>
      </trkpt>
      <trkpt lat="43.97605" lon="-0.1868">
        <ele>78.48</ele>
        <time>2016-02-11T11:52:36Z</time>
      </trkpt>
      <trkpt lat="43.97584" lon="-0.18689">
        <ele>78.48</ele>
        <time>2016-02-11T11:52:53Z</time>
      </trkpt>
      <trkpt lat="43.97568" lon="-0.18697">
        <ele>78</ele>
        <time>2016-02-11T11:53:08Z</time>
      </trkpt>
      <trkpt lat="43.97549" lon="-0.18705">
        <ele>78</ele>
        <time>2016-02-11T11:53:23Z</time>
      </trkpt>
      <trkpt lat="43.97529" lon="-0.18712">
        <ele>77.52</ele>
        <time>2016-02-11T11:53:39Z</time>
      </trkpt>
      <trkpt lat="43.9751" lon="-0.18721">
        <ele>77.52</ele>
        <time>2016-02-11T11:53:55Z</time>
      </trkpt>
      <trkpt lat="43.9749" lon="-0.18729">
        <ele>77.52</ele>
        <time>2016-02-11T11:54:11Z</time>
      </trkpt>
      <trkpt lat="43.97483" lon="-0.18732">
        <ele>77.52</ele>
        <time>2016-02-11T11:54:17Z</time>
      </trkpt>
      <trkpt lat="43.97462" lon="-0.18742">
        <ele>77.04</ele>
        <time>2016-02-11T11:54:35Z</time>
      </trkpt>
      <trkpt lat="43.97446" lon="-0.18748">
        <ele>77.04</ele>
        <time>2016-02-11T11:54:49Z</time>
      </trkpt>
      <trkpt lat="43.97442" lon="-0.1875">
        <ele>77.04</ele>
        <time>2016-02-11T11:54:52Z</time>
      </trkpt>
      <trkpt lat="43.97422" lon="-0.18758">
        <ele>76.56</ele>
        <time>2016-02-11T11:55:09Z</time>
      </trkpt>
      <trkpt lat="43.97403" lon="-0.18764">
        <ele>76.08</ele>
        <time>2016-02-11T11:55:26Z</time>
      </trkpt>
      <trkpt lat="43.97388" lon="-0.18753">
        <ele>76.08</ele>
        <time>2016-02-11T11:55:44Z</time>
      </trkpt>
      <trkpt lat="43.97384" lon="-0.18743">
        <ele>76.08</ele>
        <time>2016-02-11T11:55:49Z</time>
      </trkpt>
      <trkpt lat="43.97377" lon="-0.18717">
        <ele>75.6</ele>
        <time>2016-02-11T11:56:07Z</time>
      </trkpt>
      <trkpt lat="43.97376" lon="-0.18713">
        <ele>76.08</ele>
        <time>2016-02-11T11:56:09Z</time>
      </trkpt>
      <trkpt lat="43.97368" lon="-0.18691">
        <ele>75.6</ele>
        <time>2016-02-11T11:56:22Z</time>
      </trkpt>
      <trkpt lat="43.97363" lon="-0.18671">
        <ele>75.6</ele>
        <time>2016-02-11T11:56:37Z</time>
      </trkpt>
      <trkpt lat="43.97355" lon="-0.18646">
        <ele>75.6</ele>
        <time>2016-02-11T11:56:53Z</time>
      </trkpt>
      <trkpt lat="43.97354" lon="-0.18645">
        <ele>76.08</ele>
        <time>2016-02-11T11:56:54Z</time>
      </trkpt>
      <trkpt lat="43.97346" lon="-0.18619">
        <ele>75.6</ele>
        <time>2016-02-11T11:57:09Z</time>
      </trkpt>
      <trkpt lat="43.97345" lon="-0.18615">
        <ele>76.56</ele>
        <time>2016-02-11T11:57:25Z</time>
      </trkpt>
      <trkpt lat="43.97344" lon="-0.18615">
        <ele>76.08</ele>
        <time>2016-02-11T11:57:51Z</time>
      </trkpt>
      <trkpt lat="43.97344" lon="-0.18615">
        <ele>76.08</ele>
        <time>2016-02-11T11:58:11Z</time>
      </trkpt>
      <trkpt lat="43.97344" lon="-0.18614">
        <ele>76.08</ele>
        <time>2016-02-11T11:58:32Z</time>
      </trkpt>
      <trkpt lat="43.97339" lon="-0.18609">
        <ele>76.08</ele>
        <time>2016-02-11T11:58:49Z</time>
      </trkpt>
      <trkpt lat="43.97333" lon="-0.18609">
        <ele>76.08</ele>
        <time>2016-02-11T11:58:55Z</time>
      </trkpt>
      <trkpt lat="43.97313" lon="-0.18608">
        <ele>76.08</ele>
        <time>2016-02-11T11:59:12Z</time>
      </trkpt>
      <trkpt lat="43.97308" lon="-0.18607">
        <ele>76.56</ele>
        <time>2016-02-11T11:59:17Z</time>
      </trkpt>
      <trkpt lat="43.97298" lon="-0.18603">
        <ele>77.04</ele>
        <time>2016-02-11T11:59:29Z</time>
      </trkpt>
      <trkpt lat="43.97287" lon="-0.18598">
        <ele>77.04</ele>
        <time>2016-02-11T11:59:45Z</time>
      </trkpt>
      <trkpt lat="43.97275" lon="-0.1859">
        <ele>76.56</ele>
        <time>2016-02-11T11:59:54Z</time>
      </trkpt>
      <trkpt lat="43.97248" lon="-0.18587">
        <ele>76.08</ele>
        <time>2016-02-11T12:00:13Z</time>
      </trkpt>
      <trkpt lat="43.97227" lon="-0.18586">
        <ele>75.6</ele>
        <time>2016-02-11T12:00:29Z</time>
      </trkpt>
      <trkpt lat="43.97207" lon="-0.18585">
        <ele>76.08</ele>
        <time>2016-02-11T12:00:46Z</time>
      </trkpt>
      <trkpt lat="43.97207" lon="-0.18584">
        <ele>76.08</ele>
        <time>2016-02-11T12:00:48Z</time>
      </trkpt>
      <trkpt lat="43.97205" lon="-0.18578">
        <ele>76.08</ele>
        <time>2016-02-11T12:00:52Z</time>
      </trkpt>
      <trkpt lat="43.97194" lon="-0.1857">
        <ele>76.08</ele>
        <time>2016-02-11T12:01:05Z</time>
      </trkpt>
      <trkpt lat="43.97175" lon="-0.18571">
        <ele>76.08</ele>
        <time>2016-02-11T12:01:20Z</time>
      </trkpt>
      <trkpt lat="43.97173" lon="-0.1857">
        <ele>75.6</ele>
        <time>2016-02-11T12:01:33Z</time>
      </trkpt>
      <trkpt lat="43.97163" lon="-0.18561">
        <ele>75.6</ele>
        <time>2016-02-11T12:02:04Z</time>
      </trkpt>
      <trkpt lat="43.97167" lon="-0.18563">
        <ele>75.6</ele>
        <time>2016-02-11T12:02:25Z</time>
      </trkpt>
      <trkpt lat="43.97164" lon="-0.18569">
        <ele>75.6</ele>
        <time>2016-02-11T12:02:46Z</time>
      </trkpt>
      <trkpt lat="43.97169" lon="-0.18578">
        <ele>77.04</ele>
        <time>2016-02-11T12:03:07Z</time>
      </trkpt>
      <trkpt lat="43.97167" lon="-0.18581">
        <ele>75.6</ele>
        <time>2016-02-11T12:03:11Z</time>
      </trkpt>
      <trkpt lat="43.97166" lon="-0.18583">
        <ele>77.04</ele>
        <time>2016-02-11T12:03:13Z</time>
      </trkpt>
      <trkpt lat="43.97171" lon="-0.18579">
        <ele>76.08</ele>
        <time>2016-02-11T12:03:29Z</time>
      </trkpt>
      <trkpt lat="43.9717" lon="-0.1858">
        <ele>77.04</ele>
        <time>2016-02-11T12:03:42Z</time>
      </trkpt>
      <trkpt lat="43.97158" lon="-0.18586">
        <ele>78</ele>
        <time>2016-02-11T12:03:59Z</time>
      </trkpt>
      <trkpt lat="43.97145" lon="-0.18598">
        <ele>78.48</ele>
        <time>2016-02-11T12:04:14Z</time>
      </trkpt>
      <trkpt lat="43.97133" lon="-0.18609">
        <ele>79.45</ele>
        <time>2016-02-11T12:04:28Z</time>
      </trkpt>
      <trkpt lat="43.97129" lon="-0.18614">
        <ele>79.93</ele>
        <time>2016-02-11T12:04:35Z</time>
      </trkpt>
      <trkpt lat="43.97124" lon="-0.18617">
        <ele>79.45</ele>
        <time>2016-02-11T12:04:41Z</time>
      </trkpt>
      <trkpt lat="43.97122" lon="-0.18618">
        <ele>79.45</ele>
        <time>2016-02-11T12:04:43Z</time>
      </trkpt>
      <trkpt lat="43.97119" lon="-0.18619">
        <ele>79.93</ele>
        <time>2016-02-11T12:04:46Z</time>
      </trkpt>
      <trkpt lat="43.97115" lon="-0.1862">
        <ele>80.41</ele>
        <time>2016-02-11T12:04:50Z</time>
      </trkpt>
      <trkpt lat="43.97109" lon="-0.18619">
        <ele>80.89</ele>
        <time>2016-02-11T12:04:55Z</time>
      </trkpt>
      <trkpt lat="43.97096" lon="-0.18616">
        <ele>84.73</ele>
        <time>2016-02-11T12:05:10Z</time>
      </trkpt>
      <trkpt lat="43.97087" lon="-0.18608">
        <ele>86.66</ele>
        <time>2016-02-11T12:05:23Z</time>
      </trkpt>
      <trkpt lat="43.97085" lon="-0.18605">
        <ele>86.66</ele>
        <time>2016-02-11T12:05:25Z</time>
      </trkpt>
      <trkpt lat="43.97068" lon="-0.18594">
        <ele>87.14</ele>
        <time>2016-02-11T12:05:43Z</time>
      </trkpt>
      <trkpt lat="43.97055" lon="-0.18585">
        <ele>87.62</ele>
        <time>2016-02-11T12:05:58Z</time>
      </trkpt>
      <trkpt lat="43.97039" lon="-0.18574">
        <ele>88.1</ele>
        <time>2016-02-11T12:06:17Z</time>
      </trkpt>
      <trkpt lat="43.97037" lon="-0.18572">
        <ele>88.1</ele>
        <time>2016-02-11T12:06:20Z</time>
      </trkpt>
      <trkpt lat="43.97016" lon="-0.18559">
        <ele>89.06</ele>
        <time>2016-02-11T12:06:39Z</time>
      </trkpt>
      <trkpt lat="43.97003" lon="-0.18556">
        <ele>88.58</ele>
        <time>2016-02-11T12:06:55Z</time>
      </trkpt>
      <trkpt lat="43.97003" lon="-0.18552">
        <ele>88.58</ele>
        <time>2016-02-11T12:06:59Z</time>
      </trkpt>
      <trkpt lat="43.97005" lon="-0.18515">
        <ele>88.1</ele>
        <time>2016-02-11T12:07:16Z</time>
      </trkpt>
      <trkpt lat="43.96974" lon="-0.18527">
        <ele>88.58</ele>
        <time>2016-02-11T12:07:31Z</time>
      </trkpt>
      <trkpt lat="43.96959" lon="-0.1852">
        <ele>88.58</ele>
        <time>2016-02-11T12:07:48Z</time>
      </trkpt>
      <trkpt lat="43.96956" lon="-0.18518">
        <ele>88.58</ele>
        <time>2016-02-11T12:07:50Z</time>
      </trkpt>
      <trkpt lat="43.96945" lon="-0.18505">
        <ele>88.1</ele>
        <time>2016-02-11T12:07:59Z</time>
      </trkpt>
      <trkpt lat="43.96931" lon="-0.18489">
        <ele>87.62</ele>
        <time>2016-02-11T12:08:13Z</time>
      </trkpt>
      <trkpt lat="43.96916" lon="-0.18483">
        <ele>87.62</ele>
        <time>2016-02-11T12:08:26Z</time>
      </trkpt>
      <trkpt lat="43.96912" lon="-0.18496">
        <ele>88.1</ele>
        <time>2016-02-11T12:08:40Z</time>
      </trkpt>
      <trkpt lat="43.96905" lon="-0.18504">
        <ele>88.1</ele>
        <time>2016-02-11T12:08:51Z</time>
      </trkpt>
      <trkpt lat="43.96901" lon="-0.18509">
        <ele>87.62</ele>
        <time>2016-02-11T12:08:55Z</time>
      </trkpt>
      <trkpt lat="43.96891" lon="-0.18521">
        <ele>88.1</ele>
        <time>2016-02-11T12:09:09Z</time>
      </trkpt>
      <trkpt lat="43.96891" lon="-0.1852">
        <ele>88.1</ele>
        <time>2016-02-11T12:09:23Z</time>
      </trkpt>
      <trkpt lat="43.96891" lon="-0.1852">
        <ele>87.62</ele>
        <time>2016-02-11T12:09:40Z</time>
      </trkpt>
      <trkpt lat="43.96892" lon="-0.1852">
        <ele>88.1</ele>
        <time>2016-02-11T12:10:00Z</time>
      </trkpt>
      <trkpt lat="43.96892" lon="-0.1852">
        <ele>88.58</ele>
        <time>2016-02-11T12:10:09Z</time>
      </trkpt>
    </trkseg>
  </trk>
</gpx>